Time,TemperatureF,DewpointF,PressureIn,WindDirection,WindDirectionDegrees,WindSpeedMPH,WindSpeedGustMPH,Humidity,HourlyPrecipIn,Conditions,Clouds,dailyrainin,SoftwareType,DateUTC
2013-01-05 00:00:00,22.5,17.0,30.12,West,275,7.0,7.0,79,0.00,,,0.00,Wunderground v.1.15,2013-01-05 06:00:00,
2013-01-05 00:02:00,22.5,17.0,30.12,WNW,287,7.0,9.0,79,0.00,,,0.00,Wunderground v.1.15,2013-01-05 06:02:00,
2013-01-05 00:05:00,22.5,17.0,30.12,West,281,6.0,9.0,79,0.00,,,0.00,Wunderground v.1.15,2013-01-05 06:05:00,
2013-01-05 00:07:00,22.5,17.0,30.12,WNW,283,7.0,9.0,79,0.00,,,0.00,Wunderground v.1.15,2013-01-05 06:07:00,
2013-01-05 00:11:00,22.5,17.0,30.13,West,276,10.0,10.0,79,0.00,,,0.00,Wunderground v.1.15,2013-01-05 06:11:00,
2013-01-05 00:12:00,22.7,17.2,30.13,WNW,283,8.0,10.0,79,0.00,,,0.00,Wunderground v.1.15,2013-01-05 06:12:00,
2013-01-05 00:16:00,22.5,17.0,30.13,West,279,8.0,10.0,79,0.00,,,0.00,Wunderground v.1.15,2013-01-05 06:16:00,
2013-01-05 00:21:00,22.7,17.2,30.13,WSW,252,7.0,8.0,79,0.00,,,0.00,Wunderground v.1.15,2013-01-05 06:21:00,
2013-01-05 00:22:00,22.7,17.2,30.13,West,259,6.0,8.0,79,0.00,,,0.00,Wunderground v.1.15,2013-01-05 06:22:00,
2013-01-05 00:25:00,22.7,17.2,30.13,West,274,4.0,8.0,79,0.00,,,0.00,Wunderground v.1.15,2013-01-05 06:25:00,
2013-01-05 00:26:00,22.7,17.2,30.13,West,262,5.0,8.0,79,0.00,,,0.00,Wunderground v.1.15,2013-01-05 06:26:00,
2013-01-05 00:31:00,22.5,17.0,30.13,West,273,5.0,5.0,79,0.00,,,0.00,Wunderground v.1.15,2013-01-05 06:31:00,
2013-01-05 00:35:00,22.5,17.0,30.13,West,272,7.0,7.0,79,0.00,,,0.00,Wunderground v.1.15,2013-01-05 06:35:00,
2013-01-05 00:36:00,22.5,17.0,30.13,WNW,287,6.0,7.0,79,0.00,,,0.00,Wunderground v.1.15,2013-01-05 06:36:00,
2013-01-05 00:37:00,22.5,17.0,30.13,West,273,6.0,7.0,79,0.00,,,0.00,Wunderground v.1.15,2013-01-05 06:37:00,
2013-01-05 00:42:00,22.5,17.0,30.12,WNW,295,4.0,6.0,79,0.00,,,0.00,Wunderground v.1.15,2013-01-05 06:42:00,
2013-01-05 00:45:00,22.5,17.0,30.12,WNW,297,4.0,6.0,79,0.00,,,0.00,Wunderground v.1.15,2013-01-05 06:45:00,
2013-01-05 00:50:00,22.7,17.2,30.12,WNW,303,7.0,7.0,79,0.00,,,0.00,Wunderground v.1.15,2013-01-05 06:50:00,
2013-01-05 00:51:00,22.7,17.2,30.12,NW,316,3.0,7.0,79,0.00,,,0.00,Wunderground v.1.15,2013-01-05 06:51:00,
2013-01-05 00:55:00,22.5,17.0,30.12,NNW,333,5.0,7.0,79,0.00,,,0.00,Wunderground v.1.15,2013-01-05 06:55:00,
2013-01-05 00:56:00,22.5,17.0,30.12,NNW,335,5.0,7.0,79,0.00,,,0.00,Wunderground v.1.15,2013-01-05 06:56:00,
2013-01-05 01:00:00,22.4,16.9,30.12,NNW,341,5.0,5.0,79,0.00,,,0.00,Wunderground v.1.15,2013-01-05 07:00:00,
2013-01-05 01:01:00,22.2,16.7,30.12,North,350,3.0,5.0,79,0.00,,,0.00,Wunderground v.1.15,2013-01-05 07:01:00,
2013-01-05 01:02:00,22.2,16.7,30.12,North,349,5.0,5.0,79,0.00,,,0.00,Wunderground v.1.15,2013-01-05 07:02:00,
2013-01-05 01:07:00,22.2,17.0,30.12,North,350,4.0,5.0,80,0.00,,,0.00,Wunderground v.1.15,2013-01-05 07:07:00,
2013-01-05 01:10:00,22.4,17.2,30.11,North,0,6.0,6.0,80,0.00,,,0.00,Wunderground v.1.15,2013-01-05 07:10:00,
2013-01-05 01:11:00,22.4,16.9,30.11,NNW,342,4.0,6.0,79,0.00,,,0.00,Wunderground v.1.15,2013-01-05 07:11:00,
2013-01-05 01:15:00,22.2,17.0,30.11,NNW,338,6.0,6.0,80,0.00,,,0.00,Wunderground v.1.15,2013-01-05 07:15:00,
2013-01-05 01:16:00,22.2,17.0,30.11,NNW,345,7.0,7.0,80,0.00,,,0.00,Wunderground v.1.15,2013-01-05 07:16:00,
2013-01-05 01:20:00,22.2,17.0,30.11,NNW,345,3.0,5.0,80,0.00,,,0.00,Wunderground v.1.15,2013-01-05 07:20:00,
2013-01-05 01:21:00,22.2,17.0,30.11,NNW,340,4.0,5.0,80,0.00,,,0.00,Wunderground v.1.15,2013-01-05 07:21:00,
2013-01-05 01:26:00,22.2,17.0,30.11,NNW,338,4.0,5.0,80,0.00,,,0.00,Wunderground v.1.15,2013-01-05 07:26:00,
2013-01-05 01:27:00,22.2,17.0,30.11,NNW,338,4.0,5.0,80,0.00,,,0.00,Wunderground v.1.15,2013-01-05 07:27:00,
2013-01-05 01:31:00,22.2,17.0,30.11,NNW,338,4.0,4.0,80,0.00,,,0.00,Wunderground v.1.15,2013-01-05 07:31:00,
2013-01-05 01:32:00,22.2,17.0,30.11,NNW,338,4.0,4.0,80,0.00,,,0.00,Wunderground v.1.15,2013-01-05 07:32:00,
2013-01-05 01:36:00,22.2,17.0,30.11,NNW,338,3.0,4.0,80,0.00,,,0.00,Wunderground v.1.15,2013-01-05 07:36:00,
2013-01-05 01:37:00,22.2,17.0,30.11,NNW,338,3.0,4.0,80,0.00,,,0.00,Wunderground v.1.15,2013-01-05 07:37:00,
2013-01-05 01:41:00,22.4,17.2,30.11,NNW,338,2.0,3.0,80,0.00,,,0.00,Wunderground v.1.15,2013-01-05 07:41:00,
2013-01-05 01:42:00,22.4,17.2,30.11,NNW,338,3.0,3.0,80,0.00,,,0.00,Wunderground v.1.15,2013-01-05 07:42:00,
2013-01-05 01:46:00,22.5,17.3,30.11,North,356,4.0,4.0,80,0.00,,,0.00,Wunderground v.1.15,2013-01-05 07:46:00,
2013-01-05 01:47:00,22.5,17.3,30.11,North,358,6.0,6.0,80,0.00,,,0.00,Wunderground v.1.15,2013-01-05 07:47:00,
2013-01-05 01:50:00,22.7,17.2,30.11,North,0,4.0,4.0,79,0.00,,,0.00,Wunderground v.1.15,2013-01-05 07:50:00,
2013-01-05 01:51:00,22.7,17.2,30.11,North,0,6.0,6.0,79,0.00,,,0.00,Wunderground v.1.15,2013-01-05 07:51:00,
2013-01-05 01:52:00,22.7,17.2,30.11,North,359,4.0,6.0,79,0.00,,,0.00,Wunderground v.1.15,2013-01-05 07:52:00,
2013-01-05 01:56:00,22.7,17.2,30.10,North,351,6.0,6.0,79,0.00,,,0.00,Wunderground v.1.15,2013-01-05 07:56:00,
2013-01-05 02:00:00,22.9,17.4,30.10,North,349,4.0,5.0,79,0.00,,,0.00,Wunderground v.1.15,2013-01-05 08:00:00,
2013-01-05 02:01:00,22.9,17.4,30.10,North,352,6.0,6.0,79,0.00,,,0.00,Wunderground v.1.15,2013-01-05 08:01:00,
2013-01-05 02:02:00,22.9,17.4,30.10,North,359,4.0,6.0,79,0.00,,,0.00,Wunderground v.1.15,2013-01-05 08:02:00,
2013-01-05 02:06:00,22.9,17.4,30.10,North,352,3.0,6.0,79,0.00,,,0.00,Wunderground v.1.15,2013-01-05 08:06:00,
2013-01-05 02:07:00,22.9,17.4,30.10,North,352,4.0,6.0,79,0.00,,,0.00,Wunderground v.1.15,2013-01-05 08:07:00,
2013-01-05 02:12:00,23.0,17.5,30.11,NNW,344,3.0,4.0,79,0.00,,,0.00,Wunderground v.1.15,2013-01-05 08:12:00,
2013-01-05 02:15:00,23.0,17.5,30.11,NNW,344,2.0,4.0,79,0.00,,,0.00,Wunderground v.1.15,2013-01-05 08:15:00,
2013-01-05 02:17:00,23.0,17.5,30.11,NNW,343,3.0,4.0,79,0.00,,,0.00,Wunderground v.1.15,2013-01-05 08:17:00,
2013-01-05 02:20:00,23.2,17.7,30.11,NNW,343,5.0,5.0,79,0.00,,,0.00,Wunderground v.1.15,2013-01-05 08:20:00,
2013-01-05 02:21:00,23.2,17.4,30.11,North,352,5.0,5.0,78,0.00,,,0.00,Wunderground v.1.15,2013-01-05 08:21:00,
2013-01-05 02:22:00,23.2,17.4,30.11,North,351,4.0,5.0,78,0.00,,,0.00,Wunderground v.1.15,2013-01-05 08:22:00,
2013-01-05 02:25:00,23.2,17.4,30.11,NNW,345,3.0,5.0,78,0.00,,,0.00,Wunderground v.1.15,2013-01-05 08:25:00,
2013-01-05 02:26:00,23.2,17.4,30.11,NNW,345,4.0,5.0,78,0.00,,,0.00,Wunderground v.1.15,2013-01-05 08:26:00,
2013-01-05 02:27:00,23.2,17.4,30.11,NNW,345,3.0,5.0,78,0.00,,,0.00,Wunderground v.1.15,2013-01-05 08:27:00,
2013-01-05 02:30:00,23.0,17.2,30.11,NNW,345,3.0,4.0,78,0.00,,,0.00,Wunderground v.1.15,2013-01-05 08:30:00,
2013-01-05 02:31:00,23.0,17.2,30.11,NNW,345,4.0,4.0,78,0.00,,,0.00,Wunderground v.1.15,2013-01-05 08:31:00,
2013-01-05 02:32:00,23.0,17.2,30.11,NNW,345,2.0,4.0,78,0.00,,,0.00,Wunderground v.1.15,2013-01-05 08:32:00,
2013-01-05 02:36:00,22.9,17.4,30.11,NNW,345,1.0,4.0,79,0.00,,,0.00,Wunderground v.1.15,2013-01-05 08:36:00,
2013-01-05 02:37:00,22.9,17.4,30.11,NNW,345,2.0,4.0,79,0.00,,,0.00,Wunderground v.1.15,2013-01-05 08:37:00,
2013-01-05 02:38:00,22.9,17.4,30.11,NNW,344,2.0,4.0,79,0.00,,,0.00,Wunderground v.1.15,2013-01-05 08:38:00,
2013-01-05 02:42:00,22.9,17.4,30.11,NNW,344,1.0,3.0,79,0.00,,,0.00,Wunderground v.1.15,2013-01-05 08:42:00,
2013-01-05 02:43:00,22.9,17.4,30.11,NNW,344,2.0,3.0,79,0.00,,,0.00,Wunderground v.1.15,2013-01-05 08:43:00,
2013-01-05 02:45:00,22.7,16.9,30.11,West,259,5.0,7.0,78,0.00,,,0.00,Wunderground v.1.15,2013-01-05 08:45:00,
2013-01-05 02:48:00,22.2,16.4,30.11,WSW,243,10.0,10.0,78,0.00,,,0.00,Wunderground v.1.15,2013-01-05 08:48:00,
2013-01-05 02:49:00,21.6,15.8,30.11,WSW,244,10.0,11.0,78,0.00,,,0.00,Wunderground v.1.15,2013-01-05 08:49:00,
2013-01-05 02:52:00,21.1,15.3,30.11,WSW,250,7.0,11.0,78,0.00,,,0.00,Wunderground v.1.15,2013-01-05 08:52:00,
2013-01-05 02:55:00,20.5,15.3,30.14,SW,217,10.0,12.0,80,0.00,,,0.00,Wunderground v.1.15,2013-01-05 08:55:00,
2013-01-05 02:56:00,20.5,15.3,30.14,WSW,248,10.0,12.0,80,0.00,,,0.00,Wunderground v.1.15,2013-01-05 08:56:00,
2013-01-05 02:57:00,20.2,15.3,30.14,WSW,243,9.0,12.0,81,0.00,,,0.00,Wunderground v.1.15,2013-01-05 08:57:00,
2013-01-05 03:01:00,19.7,15.1,30.14,WSW,243,9.0,9.0,82,0.00,,,0.00,Wunderground v.1.15,2013-01-05 09:01:00,
2013-01-05 03:02:00,19.5,14.9,30.14,WSW,240,5.0,10.0,82,0.00,,,0.00,Wunderground v.1.15,2013-01-05 09:02:00,
2013-01-05 03:06:00,19.4,15.1,30.14,WSW,241,2.0,10.0,83,0.00,,,0.00,Wunderground v.1.15,2013-01-05 09:06:00,
2013-01-05 03:07:00,19.4,15.1,30.14,WSW,237,6.0,10.0,83,0.00,,,0.00,Wunderground v.1.15,2013-01-05 09:07:00,
2013-01-05 03:08:00,19.4,15.1,30.13,WSW,238,6.0,10.0,83,0.00,,,0.00,Wunderground v.1.15,2013-01-05 09:08:00,
2013-01-05 03:11:00,19.2,14.9,30.13,WSW,250,7.0,8.0,83,0.00,,,0.00,Wunderground v.1.15,2013-01-05 09:11:00,
2013-01-05 03:12:00,19.2,14.9,30.13,WSW,245,10.0,14.0,83,0.00,,,0.00,Wunderground v.1.15,2013-01-05 09:12:00,
2013-01-05 03:13:00,19.2,14.9,30.13,West,266,10.0,14.0,83,0.00,,,0.00,Wunderground v.1.15,2013-01-05 09:13:00,
2013-01-05 03:17:00,19.2,15.2,30.13,WSW,258,6.0,14.0,84,0.00,,,0.00,Wunderground v.1.15,2013-01-05 09:17:00,
2013-01-05 03:18:00,19.2,15.2,30.13,WSW,252,7.0,14.0,84,0.00,,,0.00,Wunderground v.1.15,2013-01-05 09:18:00,
2013-01-05 03:20:00,19.2,15.2,30.13,WSW,248,3.0,8.0,84,0.00,,,0.00,Wunderground v.1.15,2013-01-05 09:20:00,
2013-01-05 03:22:00,19.2,15.4,30.13,West,271,5.0,8.0,85,0.00,,,0.00,Wunderground v.1.15,2013-01-05 09:22:00,
2013-01-05 03:25:00,19.2,15.4,30.14,West,267,2.0,8.0,85,0.00,,,0.00,Wunderground v.1.15,2013-01-05 09:25:00,
2013-01-05 03:26:00,19.2,15.4,30.14,West,267,3.0,8.0,85,0.00,,,0.00,Wunderground v.1.15,2013-01-05 09:26:00,
2013-01-05 03:27:00,19.2,15.4,30.14,WSW,240,3.0,8.0,85,0.00,,,0.00,Wunderground v.1.15,2013-01-05 09:27:00,
2013-01-05 03:28:00,19.1,15.1,30.14,WSW,240,3.0,8.0,84,0.00,,,0.00,Wunderground v.1.15,2013-01-05 09:28:00,
2013-01-05 03:32:00,19.1,15.3,30.14,WSW,239,2.0,4.0,85,0.00,,,0.00,Wunderground v.1.15,2013-01-05 09:32:00,
2013-01-05 03:35:00,18.9,15.1,30.14,WSW,239,0.0,4.0,85,0.00,,,0.00,Wunderground v.1.15,2013-01-05 09:35:00,
2013-01-05 03:36:00,18.9,15.1,30.14,WSW,239,0.0,4.0,85,0.00,,,0.00,Wunderground v.1.15,2013-01-05 09:36:00,
2013-01-05 03:38:00,18.9,15.1,30.13,WSW,239,2.0,4.0,85,0.00,,,0.00,Wunderground v.1.15,2013-01-05 09:38:00,
2013-01-05 03:40:00,18.8,15.0,30.13,WSW,239,3.0,3.0,85,0.00,,,0.00,Wunderground v.1.15,2013-01-05 09:40:00,
2013-01-05 03:41:00,18.6,14.8,30.13,WSW,238,3.0,4.0,85,0.00,,,0.00,Wunderground v.1.15,2013-01-05 09:41:00,
2013-01-05 03:42:00,18.6,14.8,30.13,SW,219,6.0,6.0,85,0.00,,,0.00,Wunderground v.1.15,2013-01-05 09:42:00,
2013-01-05 03:45:00,18.8,15.0,30.13,SW,219,4.0,6.0,85,0.00,,,0.00,Wunderground v.1.15,2013-01-05 09:45:00,
2013-01-05 03:46:00,18.8,15.3,30.13,SW,219,4.0,6.0,86,0.00,,,0.00,Wunderground v.1.15,2013-01-05 09:46:00,
2013-01-05 03:50:00,19.1,15.6,30.13,SW,224,4.0,4.0,86,0.00,,,0.00,Wunderground v.1.15,2013-01-05 09:50:00,
2013-01-05 03:51:00,19.2,15.7,30.13,SW,224,3.0,4.0,86,0.00,,,0.00,Wunderground v.1.15,2013-01-05 09:51:00,
2013-01-05 03:55:00,19.2,15.7,30.14,SW,221,5.0,6.0,86,0.00,,,0.00,Wunderground v.1.15,2013-01-05 09:55:00,
2013-01-05 03:56:00,19.2,15.7,30.14,SW,225,6.0,6.0,86,0.00,,,0.00,Wunderground v.1.15,2013-01-05 09:56:00,
2013-01-05 03:57:00,19.2,15.7,30.14,SW,225,6.0,6.0,86,0.00,,,0.00,Wunderground v.1.15,2013-01-05 09:57:00,
2013-01-05 03:58:00,19.2,15.7,30.14,SW,221,5.0,6.0,86,0.00,,,0.00,Wunderground v.1.15,2013-01-05 09:58:00,
2013-01-05 04:00:00,19.4,15.9,30.14,SW,224,4.0,6.0,86,0.00,,,0.00,Wunderground v.1.15,2013-01-05 10:00:00,
2013-01-05 04:03:00,19.4,15.9,30.14,SW,217,5.0,6.0,86,0.00,,,0.00,Wunderground v.1.15,2013-01-05 10:03:00,
2013-01-05 04:05:00,19.4,15.9,30.14,SW,217,4.0,6.0,86,0.00,,,0.00,Wunderground v.1.15,2013-01-05 10:05:00,
2013-01-05 04:09:00,19.4,15.9,30.13,SSW,212,4.0,6.0,86,0.00,,,0.00,Wunderground v.1.15,2013-01-05 10:09:00,
2013-01-05 04:10:00,19.4,15.9,30.13,SSW,210,4.0,5.0,86,0.00,,,0.00,Wunderground v.1.15,2013-01-05 10:10:00,
2013-01-05 04:11:00,19.4,15.9,30.13,SSW,210,4.0,5.0,86,0.00,,,0.00,Wunderground v.1.15,2013-01-05 10:11:00,
2013-01-05 04:16:00,19.4,15.9,30.13,SSW,207,4.0,5.0,86,0.00,,,0.00,Wunderground v.1.15,2013-01-05 10:16:00,
2013-01-05 04:17:00,19.4,15.9,30.13,SW,214,4.0,5.0,86,0.00,,,0.00,Wunderground v.1.15,2013-01-05 10:17:00,
2013-01-05 04:18:00,19.4,15.9,30.13,WSW,245,5.0,5.0,86,0.00,,,0.00,Wunderground v.1.15,2013-01-05 10:18:00,
2013-01-05 04:21:00,19.5,16.0,30.13,SW,215,3.0,4.0,86,0.00,,,0.00,Wunderground v.1.15,2013-01-05 10:21:00,
2013-01-05 04:25:00,19.4,15.9,30.12,SW,215,3.0,4.0,86,0.00,,,0.00,Wunderground v.1.15,2013-01-05 10:25:00,
2013-01-05 04:26:00,19.4,15.9,30.12,SW,215,3.0,4.0,86,0.00,,,0.00,Wunderground v.1.15,2013-01-05 10:26:00,
2013-01-05 04:27:00,19.4,15.9,30.12,SW,215,1.0,4.0,86,0.00,,,0.00,Wunderground v.1.15,2013-01-05 10:27:00,
2013-01-05 04:28:00,19.4,15.9,30.12,SW,215,2.0,4.0,86,0.00,,,0.00,Wunderground v.1.15,2013-01-05 10:28:00,
2013-01-05 04:31:00,19.7,16.2,30.12,SW,215,2.0,3.0,86,0.00,,,0.00,Wunderground v.1.15,2013-01-05 10:31:00,
2013-01-05 04:36:00,20.0,16.5,30.12,SW,215,2.0,3.0,86,0.00,,,0.00,Wunderground v.1.15,2013-01-05 10:36:00,
2013-01-05 04:37:00,20.0,16.5,30.12,SW,215,2.0,3.0,86,0.00,,,0.00,Wunderground v.1.15,2013-01-05 10:37:00,
2013-01-05 04:41:00,20.2,16.7,30.11,SW,215,3.0,3.0,86,0.00,,,0.00,Wunderground v.1.15,2013-01-05 10:41:00,
2013-01-05 04:45:00,20.0,16.5,30.11,SW,215,4.0,4.0,86,0.00,,,0.00,Wunderground v.1.15,2013-01-05 10:45:00,
2013-01-05 04:46:00,20.0,16.5,30.11,SW,215,4.0,4.0,86,0.00,,,0.00,Wunderground v.1.15,2013-01-05 10:46:00,
2013-01-05 04:47:00,20.0,16.5,30.11,SW,215,4.0,4.0,86,0.00,,,0.00,Wunderground v.1.15,2013-01-05 10:47:00,
2013-01-05 04:51:00,20.0,16.5,30.11,SW,215,4.0,4.0,86,0.00,,,0.00,Wunderground v.1.15,2013-01-05 10:51:00,
2013-01-05 04:52:00,20.0,16.5,30.11,SW,215,3.0,4.0,86,0.00,,,0.00,Wunderground v.1.15,2013-01-05 10:52:00,
2013-01-05 04:56:00,20.0,16.5,30.11,SW,215,4.0,4.0,86,0.00,,,0.00,Wunderground v.1.15,2013-01-05 10:56:00,
2013-01-05 04:57:00,20.0,16.5,30.11,SW,215,3.0,4.0,86,0.00,,,0.00,Wunderground v.1.15,2013-01-05 10:57:00,
2013-01-05 04:58:00,19.9,16.4,30.11,SW,215,3.0,4.0,86,0.00,,,0.00,Wunderground v.1.15,2013-01-05 10:58:00,
2013-01-05 05:02:00,20.0,16.5,30.11,SW,215,3.0,4.0,86,0.00,,,0.00,Wunderground v.1.15,2013-01-05 11:02:00,
2013-01-05 05:05:00,20.3,16.8,30.11,SW,215,4.0,4.0,86,0.00,,,0.00,Wunderground v.1.15,2013-01-05 11:05:00,
2013-01-05 05:07:00,20.3,16.8,30.11,SW,215,4.0,4.0,86,0.00,,,0.00,Wunderground v.1.15,2013-01-05 11:07:00,
2013-01-05 05:10:00,20.2,16.4,30.10,SW,215,4.0,4.0,85,0.00,,,0.00,Wunderground v.1.15,2013-01-05 11:10:00,
2013-01-05 05:12:00,20.0,16.2,30.10,SW,215,4.0,5.0,85,0.00,,,0.00,Wunderground v.1.15,2013-01-05 11:12:00,
2013-01-05 05:15:00,19.9,16.1,30.10,SW,215,4.0,5.0,85,0.00,,,0.00,Wunderground v.1.15,2013-01-05 11:15:00,
2013-01-05 05:16:00,19.9,16.4,30.10,SW,215,4.0,5.0,86,0.00,,,0.00,Wunderground v.1.15,2013-01-05 11:16:00,
2013-01-05 05:17:00,19.9,16.4,30.10,SW,215,4.0,5.0,86,0.00,,,0.00,Wunderground v.1.15,2013-01-05 11:17:00,
2013-01-05 05:18:00,19.9,16.4,30.10,SW,215,3.0,5.0,86,0.00,,,0.00,Wunderground v.1.15,2013-01-05 11:18:00,
2013-01-05 05:21:00,19.7,16.2,30.10,SW,215,4.0,5.0,86,0.00,,,0.00,Wunderground v.1.15,2013-01-05 11:21:00,
2013-01-05 05:22:00,19.7,16.2,30.10,SW,215,5.0,5.0,86,0.00,,,0.00,Wunderground v.1.15,2013-01-05 11:22:00,
2013-01-05 05:26:00,19.7,16.2,30.10,SW,215,2.0,5.0,86,0.00,,,0.00,Wunderground v.1.15,2013-01-05 11:26:00,
2013-01-05 05:27:00,19.7,16.2,30.10,SW,215,2.0,5.0,86,0.00,,,0.00,Wunderground v.1.15,2013-01-05 11:27:00,
2013-01-05 05:30:00,19.7,16.2,30.10,SW,215,3.0,5.0,86,0.00,,,0.00,Wunderground v.1.15,2013-01-05 11:30:00,
2013-01-05 05:32:00,19.7,16.2,30.10,SW,215,3.0,4.0,86,0.00,,,0.00,Wunderground v.1.15,2013-01-05 11:32:00,
2013-01-05 05:35:00,19.9,16.4,30.10,SW,215,3.0,4.0,86,0.00,,,0.00,Wunderground v.1.15,2013-01-05 11:35:00,
2013-01-05 05:36:00,19.9,16.4,30.10,SW,215,2.0,4.0,86,0.00,,,0.00,Wunderground v.1.15,2013-01-05 11:36:00,
2013-01-05 05:37:00,19.9,16.7,30.10,SW,215,1.0,4.0,87,0.00,,,0.00,Wunderground v.1.15,2013-01-05 11:37:00,
2013-01-05 05:38:00,19.9,16.4,30.09,SW,215,1.0,4.0,86,0.00,,,0.00,Wunderground v.1.15,2013-01-05 11:38:00,
2013-01-05 05:41:00,19.9,16.4,30.09,SW,215,2.0,3.0,86,0.00,,,0.00,Wunderground v.1.15,2013-01-05 11:41:00,
2013-01-05 05:45:00,19.5,16.0,30.09,SW,214,2.0,3.0,86,0.00,,,0.00,Wunderground v.1.15,2013-01-05 11:45:00,
2013-01-05 05:46:00,19.4,15.9,30.09,SW,214,1.0,3.0,86,0.00,,,0.00,Wunderground v.1.15,2013-01-05 11:46:00,
2013-01-05 05:50:00,19.5,16.3,30.09,SW,214,0.0,3.0,87,0.00,,,0.00,Wunderground v.1.15,2013-01-05 11:50:00,
2013-01-05 05:51:00,19.5,16.3,30.09,SW,214,1.0,1.0,87,0.00,,,0.00,Wunderground v.1.15,2013-01-05 11:51:00,
2013-01-05 05:52:00,19.5,16.3,30.09,SW,214,1.0,1.0,87,0.00,,,0.00,Wunderground v.1.15,2013-01-05 11:52:00,
2013-01-05 05:53:00,19.5,16.3,30.09,SW,214,1.0,1.0,87,0.00,,,0.00,Wunderground v.1.15,2013-01-05 11:53:00,
2013-01-05 05:56:00,19.5,16.3,30.08,SW,214,2.0,2.0,87,0.00,,,0.00,Wunderground v.1.15,2013-01-05 11:56:00,
2013-01-05 05:57:00,19.5,16.3,30.08,SE,146,3.0,3.0,87,0.00,,,0.00,Wunderground v.1.15,2013-01-05 11:57:00,
2013-01-05 06:00:00,19.4,15.9,30.08,ESE,103,2.0,2.0,86,0.00,,,0.00,Wunderground v.1.15,2013-01-05 12:00:00,
2013-01-05 06:01:00,19.4,16.2,30.08,ESE,103,2.0,2.0,87,0.00,,,0.00,Wunderground v.1.15,2013-01-05 12:01:00,
2013-01-05 06:06:00,19.7,16.5,30.08,ESE,103,1.0,2.0,87,0.00,,,0.00,Wunderground v.1.15,2013-01-05 12:06:00,
2013-01-05 06:07:00,19.7,16.5,30.08,ESE,103,2.0,2.0,87,0.00,,,0.00,Wunderground v.1.15,2013-01-05 12:07:00,
2013-01-05 06:10:00,19.9,16.7,30.08,SE,128,3.0,3.0,87,0.00,,,0.00,Wunderground v.1.15,2013-01-05 12:10:00,
2013-01-05 06:11:00,19.9,16.7,30.08,South,176,4.0,4.0,87,0.00,,,0.00,Wunderground v.1.15,2013-01-05 12:11:00,
2013-01-05 06:12:00,19.9,16.7,30.08,South,184,4.0,4.0,87,0.00,,,0.00,Wunderground v.1.15,2013-01-05 12:12:00,
2013-01-05 06:15:00,19.2,16.0,30.08,South,187,3.0,5.0,87,0.00,,,0.00,Wunderground v.1.15,2013-01-05 12:15:00,
2013-01-05 06:16:00,19.2,15.7,30.08,South,184,4.0,5.0,86,0.00,,,0.00,Wunderground v.1.15,2013-01-05 12:16:00,
2013-01-05 06:17:00,18.9,15.4,30.08,South,183,3.0,5.0,86,0.00,,,0.00,Wunderground v.1.15,2013-01-05 12:17:00,
2013-01-05 06:18:00,18.8,15.3,30.08,South,182,4.0,5.0,86,0.00,,,0.00,Wunderground v.1.15,2013-01-05 12:18:00,
2013-01-05 06:21:00,18.6,15.1,30.08,South,182,3.0,4.0,86,0.00,,,0.00,Wunderground v.1.15,2013-01-05 12:21:00,
2013-01-05 06:22:00,18.6,15.4,30.08,SSW,203,5.0,5.0,87,0.00,,,0.00,Wunderground v.1.15,2013-01-05 12:22:00,
2013-01-05 06:25:00,18.9,15.9,30.08,SSW,203,5.0,6.0,88,0.00,,,0.00,Wunderground v.1.15,2013-01-05 12:25:00,
2013-01-05 06:27:00,18.9,15.7,30.08,SSW,210,6.0,6.0,87,0.00,,,0.00,Wunderground v.1.15,2013-01-05 12:27:00,
2013-01-05 06:31:00,18.8,15.8,30.08,SSW,213,7.0,7.0,88,0.00,,,0.00,Wunderground v.1.15,2013-01-05 12:31:00,
2013-01-05 06:32:00,18.8,15.8,30.08,SW,220,5.0,7.0,88,0.00,,,0.00,Wunderground v.1.15,2013-01-05 12:32:00,
2013-01-05 06:33:00,18.6,15.6,30.08,SSW,207,6.0,7.0,88,0.00,,,0.00,Wunderground v.1.15,2013-01-05 12:33:00,
2013-01-05 06:36:00,18.6,15.6,30.08,SSW,212,6.0,7.0,88,0.00,,,0.00,Wunderground v.1.15,2013-01-05 12:36:00,
2013-01-05 06:37:00,18.6,15.6,30.08,SSW,208,5.0,7.0,88,0.00,,,0.00,Wunderground v.1.15,2013-01-05 12:37:00,
2013-01-05 06:40:00,18.6,15.6,30.08,SW,221,6.0,6.0,88,0.00,,,0.00,Wunderground v.1.15,2013-01-05 12:40:00,
2013-01-05 06:42:00,18.6,15.6,30.08,SW,217,5.0,6.0,88,0.00,,,0.00,Wunderground v.1.15,2013-01-05 12:42:00,
2013-01-05 06:45:00,18.6,15.9,30.08,SSW,211,3.0,6.0,89,0.00,,,0.00,Wunderground v.1.15,2013-01-05 12:45:00,
2013-01-05 06:46:00,18.6,15.9,30.08,SSW,211,2.0,6.0,89,0.00,,,0.00,Wunderground v.1.15,2013-01-05 12:46:00,
2013-01-05 06:47:00,18.6,15.9,30.08,SSW,211,4.0,6.0,89,0.00,,,0.00,Wunderground v.1.15,2013-01-05 12:47:00,
2013-01-05 06:50:00,18.6,15.9,30.08,SSW,211,4.0,4.0,89,0.00,,,0.00,Wunderground v.1.15,2013-01-05 12:50:00,
2013-01-05 06:51:00,18.6,15.9,30.08,SSW,211,5.0,5.0,89,0.00,,,0.00,Wunderground v.1.15,2013-01-05 12:51:00,
2013-01-05 06:53:00,18.6,15.9,30.08,SSW,211,5.0,5.0,89,0.00,,,0.00,Wunderground v.1.15,2013-01-05 12:53:00,
2013-01-05 06:56:00,18.4,15.7,30.08,SSW,210,3.0,5.0,89,0.00,,,0.00,Wunderground v.1.15,2013-01-05 12:56:00,
2013-01-05 06:57:00,18.4,15.7,30.08,SSW,198,5.0,5.0,89,0.00,,,0.00,Wunderground v.1.15,2013-01-05 12:57:00,
2013-01-05 07:01:00,18.4,15.7,30.08,SSW,195,6.0,6.0,89,0.00,,,0.00,Wunderground v.1.15,2013-01-05 13:01:00,
2013-01-05 07:02:00,18.4,15.7,30.08,South,189,4.0,6.0,89,0.00,,,0.00,Wunderground v.1.15,2013-01-05 13:02:00,
2013-01-05 07:06:00,18.3,15.6,30.08,SSW,193,8.0,9.0,89,0.00,,,0.00,Wunderground v.1.15,2013-01-05 13:06:00,
2013-01-05 07:07:00,18.3,15.6,30.08,SSW,195,8.0,9.0,89,0.00,,,0.00,Wunderground v.1.15,2013-01-05 13:07:00,
2013-01-05 07:10:00,18.1,15.4,30.09,SSW,193,7.0,7.0,89,0.00,,,0.00,Wunderground v.1.15,2013-01-05 13:10:00,
2013-01-05 07:11:00,18.1,15.4,30.09,South,190,4.0,7.0,89,0.00,,,0.00,Wunderground v.1.15,2013-01-05 13:11:00,
2013-01-05 07:12:00,18.1,15.4,30.09,South,186,5.0,7.0,89,0.00,,,0.00,Wunderground v.1.15,2013-01-05 13:12:00,
2013-01-05 07:13:00,18.1,15.4,30.09,South,185,4.0,7.0,89,0.00,,,0.00,Wunderground v.1.15,2013-01-05 13:13:00,
2013-01-05 07:16:00,18.1,15.4,30.09,South,180,5.0,7.0,89,0.00,,,0.00,Wunderground v.1.15,2013-01-05 13:16:00,
2013-01-05 07:18:00,18.3,15.6,30.09,South,170,4.0,7.0,89,0.00,,,0.00,Wunderground v.1.15,2013-01-05 13:18:00,
2013-01-05 07:22:00,18.6,16.2,30.09,South,173,3.0,5.0,90,0.00,,,0.00,Wunderground v.1.15,2013-01-05 13:22:00,
2013-01-05 07:23:00,18.8,16.4,30.07,SSW,194,4.0,5.0,90,0.00,,,0.00,Wunderground v.1.15,2013-01-05 13:23:00,
2013-01-05 07:24:00,18.9,16.5,30.07,South,180,4.0,5.0,90,0.00,,,0.00,Wunderground v.1.15,2013-01-05 13:24:00,
2013-01-05 07:27:00,19.4,17.2,30.07,SW,221,6.0,7.0,91,0.00,,,0.00,Wunderground v.1.15,2013-01-05 13:27:00,
2013-01-05 07:28:00,19.4,17.2,30.07,SSW,205,6.0,7.0,91,0.00,,,0.00,Wunderground v.1.15,2013-01-05 13:28:00,
2013-01-05 07:31:00,19.2,16.7,30.07,SW,221,8.0,8.0,90,0.00,,,0.00,Wunderground v.1.15,2013-01-05 13:31:00,
2013-01-05 07:32:00,19.2,16.7,30.07,WSW,238,5.0,8.0,90,0.00,,,0.00,Wunderground v.1.15,2013-01-05 13:32:00,
2013-01-05 07:33:00,19.1,16.7,30.07,SW,233,5.0,8.0,90,0.00,,,0.00,Wunderground v.1.15,2013-01-05 13:33:00,
2013-01-05 07:36:00,18.8,16.4,30.07,SW,226,3.0,8.0,90,0.00,,,0.00,Wunderground v.1.15,2013-01-05 13:36:00,
2013-01-05 07:37:00,18.6,15.9,30.07,SW,214,6.0,9.0,89,0.00,,,0.00,Wunderground v.1.15,2013-01-05 13:37:00,
2013-01-05 07:38:00,18.6,15.9,30.07,SSW,208,5.0,9.0,89,0.00,,,0.00,Wunderground v.1.15,2013-01-05 13:38:00,
2013-01-05 07:41:00,18.6,16.2,30.08,SW,229,6.0,7.0,90,0.00,,,0.00,Wunderground v.1.15,2013-01-05 13:41:00,
2013-01-05 07:42:00,18.6,16.2,30.08,SW,223,7.0,7.0,90,0.00,,,0.00,Wunderground v.1.15,2013-01-05 13:42:00,
2013-01-05 07:45:00,18.6,16.2,30.08,SW,219,7.0,9.0,90,0.00,,,0.00,Wunderground v.1.15,2013-01-05 13:45:00,
2013-01-05 07:47:00,18.6,16.2,30.08,SW,231,7.0,9.0,90,0.00,,,0.00,Wunderground v.1.15,2013-01-05 13:47:00,
2013-01-05 07:50:00,18.6,16.2,30.08,SW,214,5.0,7.0,90,0.00,,,0.00,Wunderground v.1.15,2013-01-05 13:50:00,
2013-01-05 07:53:00,18.6,16.2,30.08,SW,226,10.0,10.0,90,0.00,,,0.00,Wunderground v.1.15,2013-01-05 13:53:00,
2013-01-05 07:54:00,18.6,16.2,30.09,SSW,205,6.0,10.0,90,0.00,,,0.00,Wunderground v.1.15,2013-01-05 13:54:00,
2013-01-05 07:56:00,18.6,16.2,30.09,SW,235,9.0,10.0,90,0.00,,,0.00,Wunderground v.1.15,2013-01-05 13:56:00,
2013-01-05 07:57:00,18.6,16.2,30.09,SW,222,10.0,10.0,90,0.00,,,0.00,Wunderground v.1.15,2013-01-05 13:57:00,
2013-01-05 08:01:00,18.6,16.4,30.09,SW,216,7.0,7.0,91,0.00,,,0.00,Wunderground v.1.15,2013-01-05 14:01:00,
2013-01-05 08:02:00,18.6,16.4,30.09,SSW,199,7.0,10.0,91,0.00,,,0.00,Wunderground v.1.15,2013-01-05 14:02:00,
2013-01-05 08:03:00,18.6,16.4,30.09,SSW,209,7.0,10.0,91,0.00,,,0.00,Wunderground v.1.15,2013-01-05 14:03:00,
2013-01-05 08:06:00,18.6,16.4,30.09,SW,233,8.0,12.0,91,0.00,,,0.00,Wunderground v.1.15,2013-01-05 14:06:00,
2013-01-05 08:07:00,18.8,16.6,30.09,SW,223,7.0,12.0,91,0.00,,,0.00,Wunderground v.1.15,2013-01-05 14:07:00,
2013-01-05 08:10:00,19.1,16.9,30.08,SW,220,6.0,11.0,91,0.00,,,0.00,Wunderground v.1.15,2013-01-05 14:10:00,
2013-01-05 08:11:00,19.1,16.9,30.08,SW,229,7.0,11.0,91,0.00,,,0.00,Wunderground v.1.15,2013-01-05 14:11:00,
2013-01-05 08:12:00,19.1,16.9,30.08,SW,224,5.0,11.0,91,0.00,,,0.00,Wunderground v.1.15,2013-01-05 14:12:00,
2013-01-05 08:15:00,19.2,17.0,30.08,WSW,238,6.0,11.0,91,0.00,,,0.00,Wunderground v.1.15,2013-01-05 14:15:00,
2013-01-05 08:16:00,19.2,17.0,30.08,WSW,238,4.0,11.0,91,0.00,,,0.00,Wunderground v.1.15,2013-01-05 14:16:00,
2013-01-05 08:17:00,19.2,17.0,30.08,SW,234,6.0,11.0,91,0.00,,,0.00,Wunderground v.1.15,2013-01-05 14:17:00,
2013-01-05 08:20:00,19.4,17.2,30.08,SW,225,5.0,8.0,91,0.00,,,0.00,Wunderground v.1.15,2013-01-05 14:20:00,
2013-01-05 08:21:00,19.4,17.2,30.08,SW,229,6.0,9.0,91,0.00,,,0.00,Wunderground v.1.15,2013-01-05 14:21:00,
2013-01-05 08:22:00,19.4,17.2,30.08,SW,228,5.0,9.0,91,0.00,,,0.00,Wunderground v.1.15,2013-01-05 14:22:00,
2013-01-05 08:25:00,19.5,17.3,30.09,SSW,212,3.0,9.0,91,0.00,,,0.00,Wunderground v.1.15,2013-01-05 14:25:00,
2013-01-05 08:26:00,19.5,17.3,30.09,SW,218,3.0,9.0,91,0.00,,,0.00,Wunderground v.1.15,2013-01-05 14:26:00,
2013-01-05 08:30:00,19.9,17.7,30.09,SW,216,3.0,5.0,91,0.00,,,0.00,Wunderground v.1.15,2013-01-05 14:30:00,
2013-01-05 08:31:00,19.9,17.7,30.09,WSW,238,5.0,5.0,91,0.00,,,0.00,Wunderground v.1.15,2013-01-05 14:31:00,
2013-01-05 08:33:00,19.9,17.7,30.09,SSW,200,4.0,6.0,91,0.00,,,0.00,Wunderground v.1.15,2013-01-05 14:33:00,
2013-01-05 08:36:00,20.2,18.0,30.09,SW,224,7.0,7.0,91,0.00,,,0.00,Wunderground v.1.15,2013-01-05 14:36:00,
2013-01-05 08:37:00,20.2,18.0,30.09,SW,228,4.0,7.0,91,0.00,,,0.00,Wunderground v.1.15,2013-01-05 14:37:00,
2013-01-05 08:41:00,20.3,18.1,30.08,SW,227,5.0,5.0,91,0.00,,,0.00,Wunderground v.1.15,2013-01-05 14:41:00,
2013-01-05 08:42:00,20.3,18.1,30.08,SW,233,7.0,7.0,91,0.00,,,0.00,Wunderground v.1.15,2013-01-05 14:42:00,
2013-01-05 08:45:00,20.5,18.3,30.08,WSW,244,4.0,9.0,91,0.00,,,0.00,Wunderground v.1.15,2013-01-05 14:45:00,
2013-01-05 08:46:00,20.6,18.4,30.08,SW,230,5.0,9.0,91,0.00,,,0.00,Wunderground v.1.15,2013-01-05 14:46:00,
2013-01-05 08:47:00,20.6,18.4,30.08,SW,221,5.0,9.0,91,0.00,,,0.00,Wunderground v.1.15,2013-01-05 14:47:00,
2013-01-05 08:48:00,20.6,18.4,30.08,SW,226,2.0,9.0,91,0.00,,,0.00,Wunderground v.1.15,2013-01-05 14:48:00,
2013-01-05 08:50:00,21.0,18.8,30.08,SW,226,5.0,7.0,91,0.00,,,0.00,Wunderground v.1.15,2013-01-05 14:50:00,
2013-01-05 08:51:00,21.0,18.8,30.08,SW,233,7.0,7.0,91,0.00,,,0.00,Wunderground v.1.15,2013-01-05 14:51:00,
2013-01-05 08:52:00,21.1,18.9,30.08,SW,229,4.0,7.0,91,0.00,,,0.00,Wunderground v.1.15,2013-01-05 14:52:00,
2013-01-05 08:55:00,21.3,18.8,30.08,SW,225,4.0,7.0,90,0.00,,,0.00,Wunderground v.1.15,2013-01-05 14:55:00,
2013-01-05 08:57:00,21.4,18.9,30.08,SW,227,3.0,7.0,90,0.00,,,0.00,Wunderground v.1.15,2013-01-05 14:57:00,
2013-01-05 09:00:00,21.8,19.3,30.08,SW,226,4.0,5.0,90,0.00,,,0.00,Wunderground v.1.15,2013-01-05 15:00:00,
2013-01-05 09:02:00,21.9,19.4,30.08,WSW,240,3.0,6.0,90,0.00,,,0.00,Wunderground v.1.15,2013-01-05 15:02:00,
2013-01-05 09:05:00,22.1,19.6,30.08,SSW,212,3.0,6.0,90,0.00,,,0.00,Wunderground v.1.15,2013-01-05 15:05:00,
2013-01-05 09:06:00,22.2,19.7,30.08,SW,221,5.0,6.0,90,0.00,,,0.00,Wunderground v.1.15,2013-01-05 15:06:00,
2013-01-05 09:07:00,22.2,19.7,30.08,SW,214,5.0,6.0,90,0.00,,,0.00,Wunderground v.1.15,2013-01-05 15:07:00,
2013-01-05 09:09:00,22.4,19.6,30.06,SW,232,4.0,6.0,89,0.00,,,0.00,Wunderground v.1.15,2013-01-05 15:09:00,
2013-01-05 09:10:00,22.4,19.6,30.06,SW,232,3.0,4.0,89,0.00,,,0.00,Wunderground v.1.15,2013-01-05 15:10:00,
2013-01-05 09:11:00,22.5,19.7,30.06,SW,234,4.0,5.0,89,0.00,,,0.00,Wunderground v.1.15,2013-01-05 15:11:00,
2013-01-05 09:15:00,22.9,20.1,30.06,WSW,246,6.0,6.0,89,0.00,,,0.00,Wunderground v.1.15,2013-01-05 15:15:00,
2013-01-05 09:16:00,22.9,20.1,30.06,WSW,246,3.0,6.0,89,0.00,,,0.00,Wunderground v.1.15,2013-01-05 15:16:00,
2013-01-05 09:17:00,23.0,20.2,30.06,WSW,240,3.0,6.0,89,0.00,,,0.00,Wunderground v.1.15,2013-01-05 15:17:00,
2013-01-05 09:20:00,23.2,20.2,30.06,SW,233,3.0,4.0,88,0.00,,,0.00,Wunderground v.1.15,2013-01-05 15:20:00,
2013-01-05 09:22:00,23.3,20.3,30.06,SW,214,3.0,4.0,88,0.00,,,0.00,Wunderground v.1.15,2013-01-05 15:22:00,
2013-01-05 09:23:00,23.3,20.3,30.06,SSW,212,3.0,5.0,88,0.00,,,0.00,Wunderground v.1.15,2013-01-05 15:23:00,
2013-01-05 09:25:00,23.6,20.3,30.06,SW,229,5.0,6.0,87,0.00,,,0.00,Wunderground v.1.15,2013-01-05 15:25:00,
2013-01-05 09:27:00,23.8,20.5,30.06,SW,234,5.0,6.0,87,0.00,,,0.00,Wunderground v.1.15,2013-01-05 15:27:00,
2013-01-05 09:31:00,24.2,20.9,30.06,South,186,3.0,4.0,87,0.00,,,0.00,Wunderground v.1.15,2013-01-05 15:31:00,
2013-01-05 09:33:00,24.5,20.9,30.06,SW,230,5.0,6.0,86,0.00,,,0.00,Wunderground v.1.15,2013-01-05 15:33:00,
2013-01-05 09:35:00,24.7,21.1,30.06,SSW,212,3.0,6.0,86,0.00,,,0.00,Wunderground v.1.15,2013-01-05 15:35:00,
2013-01-05 09:37:00,25.0,21.4,30.06,SW,220,2.0,6.0,86,0.00,,,0.00,Wunderground v.1.15,2013-01-05 15:37:00,
2013-01-05 09:40:00,25.1,21.2,30.07,SSW,212,7.0,7.0,85,0.00,,,0.00,Wunderground v.1.15,2013-01-05 15:40:00,
2013-01-05 09:41:00,25.1,21.2,30.07,SSW,208,2.0,7.0,85,0.00,,,0.00,Wunderground v.1.15,2013-01-05 15:41:00,
2013-01-05 09:44:00,25.3,21.1,30.07,WSW,244,4.0,7.0,84,0.00,,,0.00,Wunderground v.1.15,2013-01-05 15:44:00,
2013-01-05 09:45:00,25.4,21.2,30.07,WSW,238,6.0,7.0,84,0.00,,,0.00,Wunderground v.1.15,2013-01-05 15:45:00,
2013-01-05 09:46:00,25.4,21.2,30.07,WSW,243,5.0,7.0,84,0.00,,,0.00,Wunderground v.1.15,2013-01-05 15:46:00,
2013-01-05 09:48:00,25.6,21.2,30.07,WSW,252,6.0,7.0,83,0.00,,,0.00,Wunderground v.1.15,2013-01-05 15:48:00,
2013-01-05 09:51:00,25.4,21.0,30.07,WSW,240,7.0,7.0,83,0.00,,,0.00,Wunderground v.1.15,2013-01-05 15:51:00,
2013-01-05 09:53:00,25.6,21.2,30.08,SW,235,5.0,7.0,83,0.00,,,0.00,Wunderground v.1.15,2013-01-05 15:53:00,
2013-01-05 09:56:00,25.7,21.0,30.08,SW,228,7.0,11.0,82,0.00,,,0.00,Wunderground v.1.15,2013-01-05 15:56:00,
2013-01-05 09:57:00,25.7,21.0,30.08,WSW,246,10.0,11.0,82,0.00,,,0.00,Wunderground v.1.15,2013-01-05 15:57:00,
2013-01-05 10:00:00,25.8,21.1,30.08,SW,231,7.0,7.0,82,0.00,,,0.00,Wunderground v.1.15,2013-01-05 16:00:00,
2013-01-05 10:02:00,26.0,21.3,30.08,WSW,247,11.0,11.0,82,0.00,,,0.00,Wunderground v.1.15,2013-01-05 16:02:00,
2013-01-05 10:03:00,26.0,21.3,30.08,WSW,250,7.0,11.0,82,0.00,,,0.00,Wunderground v.1.15,2013-01-05 16:03:00,
2013-01-05 10:06:00,26.1,21.4,30.08,WSW,239,10.0,13.0,82,0.00,,,0.00,Wunderground v.1.15,2013-01-05 16:06:00,
2013-01-05 10:11:00,26.3,21.3,30.08,SW,234,13.0,13.0,81,0.00,,,0.00,Wunderground v.1.15,2013-01-05 16:11:00,
2013-01-05 10:12:00,26.3,21.3,30.08,SW,228,8.0,13.0,81,0.00,,,0.00,Wunderground v.1.15,2013-01-05 16:12:00,
2013-01-05 10:17:00,26.3,21.0,30.08,WSW,248,14.0,14.0,80,0.00,,,0.00,Wunderground v.1.15,2013-01-05 16:17:00,
2013-01-05 10:18:00,26.4,21.1,30.08,SW,236,10.0,14.0,80,0.00,,,0.00,Wunderground v.1.15,2013-01-05 16:18:00,
2013-01-05 10:21:00,26.6,21.3,30.08,SSW,207,6.0,11.0,80,0.00,,,0.00,Wunderground v.1.15,2013-01-05 16:21:00,
2013-01-05 10:22:00,26.7,21.4,30.08,SW,218,9.0,12.0,80,0.00,,,0.00,Wunderground v.1.15,2013-01-05 16:22:00,
2013-01-05 10:26:00,26.7,21.4,30.07,WSW,245,8.0,13.0,80,0.00,,,0.00,Wunderground v.1.15,2013-01-05 16:26:00,
2013-01-05 10:27:00,26.9,21.6,30.07,WSW,252,16.0,16.0,80,0.00,,,0.00,Wunderground v.1.15,2013-01-05 16:27:00,
2013-01-05 10:30:00,27.0,21.7,30.07,WSW,244,10.0,10.0,80,0.00,,,0.00,Wunderground v.1.15,2013-01-05 16:30:00,
2013-01-05 10:31:00,27.0,21.7,30.07,South,191,8.0,10.0,80,0.00,,,0.00,Wunderground v.1.15,2013-01-05 16:31:00,
2013-01-05 10:35:00,27.5,22.1,30.07,SW,223,11.0,14.0,80,0.00,,,0.00,Wunderground v.1.15,2013-01-05 16:35:00,
2013-01-05 10:36:00,27.6,22.2,30.07,SW,229,9.0,14.0,80,0.00,,,0.00,Wunderground v.1.15,2013-01-05 16:36:00,
2013-01-05 10:40:00,27.9,22.2,30.06,SSW,194,5.0,10.0,79,0.00,,,0.00,Wunderground v.1.15,2013-01-05 16:40:00,
2013-01-05 10:41:00,27.9,22.2,30.06,SW,229,11.0,11.0,79,0.00,,,0.00,Wunderground v.1.15,2013-01-05 16:41:00,
2013-01-05 10:43:00,28.2,22.5,30.06,SW,217,5.0,11.0,79,0.00,,,0.00,Wunderground v.1.15,2013-01-05 16:43:00,
2013-01-05 10:46:00,28.7,22.7,30.06,SW,228,12.0,12.0,78,0.00,,,0.00,Wunderground v.1.15,2013-01-05 16:46:00,
2013-01-05 10:47:00,28.8,22.5,30.06,SSW,209,9.0,14.0,77,0.00,,,0.00,Wunderground v.1.15,2013-01-05 16:47:00,
2013-01-05 10:50:00,29.0,22.7,30.06,WSW,239,7.0,8.0,77,0.00,,,0.00,Wunderground v.1.15,2013-01-05 16:50:00,
2013-01-05 10:51:00,29.1,22.8,30.06,WSW,238,6.0,10.0,77,0.00,,,0.00,Wunderground v.1.15,2013-01-05 16:51:00,
2013-01-05 10:53:00,29.3,23.0,30.04,SW,232,8.0,11.0,77,0.00,,,0.00,Wunderground v.1.15,2013-01-05 16:53:00,
2013-01-05 10:55:00,29.4,22.8,30.04,SW,228,9.0,12.0,76,0.00,,,0.00,Wunderground v.1.15,2013-01-05 16:55:00,
2013-01-05 10:57:00,29.5,22.9,30.04,SW,233,10.0,12.0,76,0.00,,,0.00,Wunderground v.1.15,2013-01-05 16:57:00,
2013-01-05 10:58:00,29.7,23.1,30.04,SW,231,9.0,12.0,76,0.00,,,0.00,Wunderground v.1.15,2013-01-05 16:58:00,
2013-01-05 11:00:00,29.8,23.2,30.04,WSW,237,10.0,10.0,76,0.00,,,0.00,Wunderground v.1.15,2013-01-05 17:00:00,
2013-01-05 11:01:00,29.8,22.8,30.04,SW,229,9.0,10.0,75,0.00,,,0.00,Wunderground v.1.15,2013-01-05 17:01:00,
2013-01-05 11:03:00,30.1,23.1,30.04,WSW,240,10.0,13.0,75,0.00,,,0.00,Wunderground v.1.15,2013-01-05 17:03:00,
2013-01-05 11:06:00,30.3,23.3,30.04,SSW,197,4.0,13.0,75,0.00,,,0.00,Wunderground v.1.15,2013-01-05 17:06:00,
2013-01-05 11:11:00,30.6,23.6,30.02,SW,231,7.0,8.0,75,0.00,,,0.00,Wunderground v.1.15,2013-01-05 17:11:00,
2013-01-05 11:16:00,30.9,23.9,30.02,WSW,252,10.0,10.0,75,0.00,,,0.00,Wunderground v.1.15,2013-01-05 17:16:00,
2013-01-05 11:17:00,31.0,24.0,30.02,SW,234,5.0,10.0,75,0.00,,,0.00,Wunderground v.1.15,2013-01-05 17:17:00,
2013-01-05 11:18:00,31.0,24.0,30.02,West,259,6.0,11.0,75,0.00,,,0.00,Wunderground v.1.15,2013-01-05 17:18:00,
2013-01-05 11:22:00,31.5,24.2,30.02,WSW,244,10.0,11.0,74,0.00,,,0.00,Wunderground v.1.15,2013-01-05 17:22:00,
2013-01-05 11:23:00,31.5,24.2,30.02,WSW,238,5.0,11.0,74,0.00,,,0.00,Wunderground v.1.15,2013-01-05 17:23:00,
2013-01-05 11:25:00,31.8,24.5,30.02,WSW,252,7.0,11.0,74,0.00,,,0.00,Wunderground v.1.15,2013-01-05 17:25:00,
2013-01-05 11:26:00,31.8,24.5,30.02,WSW,240,10.0,13.0,74,0.00,,,0.00,Wunderground v.1.15,2013-01-05 17:26:00,
2013-01-05 11:30:00,32.2,24.8,30.02,WSW,237,10.0,10.0,74,0.00,,,0.00,Wunderground v.1.15,2013-01-05 17:30:00,
2013-01-05 11:31:00,32.4,25.0,30.02,WSW,244,10.0,12.0,74,0.00,,,0.00,Wunderground v.1.15,2013-01-05 17:31:00,
2013-01-05 11:33:00,32.4,24.7,30.02,SW,231,10.0,13.0,73,0.00,,,0.00,Wunderground v.1.15,2013-01-05 17:33:00,
2013-01-05 11:35:00,32.4,24.7,30.02,SW,229,10.0,13.0,73,0.00,,,0.00,Wunderground v.1.15,2013-01-05 17:35:00,
2013-01-05 11:36:00,32.4,24.7,30.02,West,263,11.0,13.0,73,0.00,,,0.00,Wunderground v.1.15,2013-01-05 17:36:00,
2013-01-05 11:40:00,32.5,24.5,30.00,WSW,249,13.0,13.0,72,0.00,,,0.00,Wunderground v.1.15,2013-01-05 17:40:00,
2013-01-05 11:41:00,32.5,24.5,30.00,SW,218,5.0,13.0,72,0.00,,,0.00,Wunderground v.1.15,2013-01-05 17:41:00,
2013-01-05 11:42:00,32.5,24.8,30.00,SSW,213,9.0,13.0,73,0.00,,,0.00,Wunderground v.1.15,2013-01-05 17:42:00,
2013-01-05 11:45:00,32.7,25.0,30.00,SW,234,7.0,13.0,73,0.00,,,0.00,Wunderground v.1.15,2013-01-05 17:45:00,
2013-01-05 11:47:00,32.7,24.7,30.00,WSW,240,12.0,13.0,72,0.00,,,0.00,Wunderground v.1.15,2013-01-05 17:47:00,
2013-01-05 11:50:00,32.8,24.8,30.00,SW,220,11.0,13.0,72,0.00,,,0.00,Wunderground v.1.15,2013-01-05 17:50:00,
2013-01-05 11:51:00,32.8,24.8,30.00,SW,233,11.0,13.0,72,0.00,,,0.00,Wunderground v.1.15,2013-01-05 17:51:00,
2013-01-05 11:52:00,32.8,24.8,30.00,WSW,245,10.0,13.0,72,0.00,,,0.00,Wunderground v.1.15,2013-01-05 17:52:00,
2013-01-05 11:53:00,32.8,24.8,30.00,WSW,238,8.0,14.0,72,0.00,,,0.00,Wunderground v.1.15,2013-01-05 17:53:00,
2013-01-05 11:56:00,32.9,25.2,29.98,South,190,14.0,14.0,73,0.00,,,0.00,Wunderground v.1.15,2013-01-05 17:56:00,
2013-01-05 11:57:00,32.9,24.9,29.98,SW,226,12.0,14.0,72,0.00,,,0.00,Wunderground v.1.15,2013-01-05 17:57:00,
2013-01-05 11:58:00,32.9,24.9,29.98,SSW,203,9.0,14.0,72,0.00,,,0.00,Wunderground v.1.15,2013-01-05 17:58:00,
2013-01-05 12:00:00,32.9,24.9,29.98,SSW,203,7.0,10.0,72,0.00,,,0.00,Wunderground v.1.15,2013-01-05 18:00:00,
2013-01-05 12:01:00,32.9,24.9,29.98,WSW,241,6.0,10.0,72,0.00,,,0.00,Wunderground v.1.15,2013-01-05 18:01:00,
2013-01-05 12:02:00,33.1,25.4,29.98,SW,234,10.0,14.0,73,0.00,,,0.00,Wunderground v.1.15,2013-01-05 18:02:00,
2013-01-05 12:06:00,33.1,25.1,29.98,SW,225,13.0,15.0,72,0.00,,,0.00,Wunderground v.1.15,2013-01-05 18:06:00,
2013-01-05 12:07:00,33.1,25.1,29.98,SW,214,15.0,15.0,72,0.00,,,0.00,Wunderground v.1.15,2013-01-05 18:07:00,
2013-01-05 12:11:00,33.1,25.4,29.97,SW,226,6.0,11.0,73,0.00,,,0.00,Wunderground v.1.15,2013-01-05 18:11:00,
2013-01-05 12:12:00,33.1,25.4,29.97,West,262,11.0,11.0,73,0.00,,,0.00,Wunderground v.1.15,2013-01-05 18:12:00,
2013-01-05 12:14:00,33.1,25.4,29.97,SW,231,10.0,11.0,73,0.00,,,0.00,Wunderground v.1.15,2013-01-05 18:14:00,
2013-01-05 12:17:00,33.1,25.4,29.97,SSW,202,12.0,12.0,73,0.00,,,0.00,Wunderground v.1.15,2013-01-05 18:17:00,
2013-01-05 12:18:00,33.1,25.4,29.97,South,187,10.0,12.0,73,0.00,,,0.00,Wunderground v.1.15,2013-01-05 18:18:00,
2013-01-05 12:20:00,33.1,25.4,29.97,SW,220,12.0,12.0,73,0.00,,,0.00,Wunderground v.1.15,2013-01-05 18:20:00,
2013-01-05 12:23:00,33.1,25.4,29.97,SSW,210,11.0,13.0,73,0.00,,,0.00,Wunderground v.1.15,2013-01-05 18:23:00,
2013-01-05 12:24:00,33.1,25.7,29.97,South,189,5.0,13.0,74,0.00,,,0.00,Wunderground v.1.15,2013-01-05 18:24:00,
2013-01-05 12:25:00,33.2,25.5,29.97,SW,219,15.0,15.0,73,0.00,,,0.00,Wunderground v.1.15,2013-01-05 18:25:00,
2013-01-05 12:28:00,33.2,25.8,29.97,SSE,157,6.0,15.0,74,0.00,,,0.00,Wunderground v.1.15,2013-01-05 18:28:00,
2013-01-05 12:31:00,33.5,25.8,29.97,South,169,7.0,12.0,73,0.00,,,0.00,Wunderground v.1.15,2013-01-05 18:31:00,
2013-01-05 12:33:00,33.7,26.0,29.97,SW,231,6.0,19.0,73,0.00,,,0.00,Wunderground v.1.15,2013-01-05 18:33:00,
2013-01-05 12:36:00,34.1,26.3,29.97,WSW,248,12.0,19.0,73,0.00,,,0.00,Wunderground v.1.15,2013-01-05 18:36:00,
2013-01-05 12:37:00,34.1,26.3,29.97,WSW,249,11.0,19.0,73,0.00,,,0.00,Wunderground v.1.15,2013-01-05 18:37:00,
2013-01-05 12:40:00,34.3,26.2,29.95,WSW,248,10.0,11.0,72,0.00,,,0.00,Wunderground v.1.15,2013-01-05 18:40:00,
2013-01-05 12:41:00,34.4,26.3,29.95,WSW,243,13.0,15.0,72,0.00,,,0.00,Wunderground v.1.15,2013-01-05 18:41:00,
2013-01-05 12:45:00,34.4,26.3,29.95,WSW,249,20.0,20.0,72,0.00,,,0.00,Wunderground v.1.15,2013-01-05 18:45:00,
2013-01-05 12:46:00,34.3,26.2,29.95,WSW,245,12.0,20.0,72,0.00,,,0.00,Wunderground v.1.15,2013-01-05 18:46:00,
2013-01-05 12:47:00,34.3,26.2,29.95,WSW,243,18.0,20.0,72,0.00,,,0.00,Wunderground v.1.15,2013-01-05 18:47:00,
2013-01-05 12:51:00,34.3,26.2,29.95,WSW,258,13.0,15.0,72,0.00,,,0.00,Wunderground v.1.15,2013-01-05 18:51:00,
2013-01-05 12:52:00,34.3,26.2,29.95,SW,227,14.0,18.0,72,0.00,,,0.00,Wunderground v.1.15,2013-01-05 18:52:00,
2013-01-05 12:57:00,34.3,26.2,29.95,WSW,245,10.0,18.0,72,0.00,,,0.00,Wunderground v.1.15,2013-01-05 18:57:00,
2013-01-05 12:58:00,34.3,26.2,29.95,WSW,248,11.0,18.0,72,0.00,,,0.00,Wunderground v.1.15,2013-01-05 18:58:00,
2013-01-05 13:03:00,34.4,26.3,29.95,West,259,13.0,16.0,72,0.00,,,0.00,Wunderground v.1.15,2013-01-05 19:03:00,
2013-01-05 13:05:00,34.4,26.0,29.95,SW,217,7.0,16.0,71,0.00,,,0.00,Wunderground v.1.15,2013-01-05 19:05:00,
2013-01-05 13:10:00,34.4,26.0,29.95,West,262,14.0,16.0,71,0.00,,,0.00,Wunderground v.1.15,2013-01-05 19:10:00,
2013-01-05 13:11:00,34.4,26.0,29.95,WSW,245,11.0,16.0,71,0.00,,,0.00,Wunderground v.1.15,2013-01-05 19:11:00,
2013-01-05 13:13:00,34.4,26.0,29.95,WSW,255,11.0,16.0,71,0.00,,,0.00,Wunderground v.1.15,2013-01-05 19:13:00,
2013-01-05 13:16:00,34.4,26.0,29.95,WSW,248,11.0,17.0,71,0.00,,,0.00,Wunderground v.1.15,2013-01-05 19:16:00,
2013-01-05 13:17:00,34.3,25.9,29.95,WSW,239,10.0,17.0,71,0.00,,,0.00,Wunderground v.1.15,2013-01-05 19:17:00,
2013-01-05 13:18:00,34.3,25.9,29.95,WSW,258,13.0,17.0,71,0.00,,,0.00,Wunderground v.1.15,2013-01-05 19:18:00,
2013-01-05 13:21:00,34.3,25.9,29.95,West,277,7.0,11.0,71,0.00,,,0.00,Wunderground v.1.15,2013-01-05 19:21:00,
2013-01-05 13:25:00,34.3,25.9,29.94,WSW,250,5.0,15.0,71,0.00,,,0.00,Wunderground v.1.15,2013-01-05 19:25:00,
2013-01-05 13:26:00,34.3,26.2,29.94,WSW,242,12.0,15.0,72,0.00,,,0.00,Wunderground v.1.15,2013-01-05 19:26:00,
2013-01-05 13:27:00,34.4,26.3,29.94,West,267,4.0,15.0,72,0.00,,,0.00,Wunderground v.1.15,2013-01-05 19:27:00,
2013-01-05 13:28:00,34.4,26.3,29.94,West,262,13.0,15.0,72,0.00,,,0.00,Wunderground v.1.15,2013-01-05 19:28:00,
2013-01-05 13:30:00,34.4,26.0,29.94,WSW,248,10.0,10.0,71,0.00,,,0.00,Wunderground v.1.15,2013-01-05 19:30:00,
2013-01-05 13:32:00,34.4,26.3,29.94,SW,219,14.0,14.0,72,0.00,,,0.00,Wunderground v.1.15,2013-01-05 19:32:00,
2013-01-05 13:36:00,34.6,26.5,29.94,West,269,13.0,14.0,72,0.00,,,0.00,Wunderground v.1.15,2013-01-05 19:36:00,
2013-01-05 13:37:00,34.6,26.2,29.94,West,259,10.0,14.0,71,0.00,,,0.00,Wunderground v.1.15,2013-01-05 19:37:00,
2013-01-05 13:40:00,34.4,26.0,29.92,WSW,252,9.0,10.0,71,0.00,,,0.00,Wunderground v.1.15,2013-01-05 19:40:00,
2013-01-05 13:41:00,34.4,26.0,29.92,WSW,243,13.0,13.0,71,0.00,,,0.00,Wunderground v.1.15,2013-01-05 19:41:00,
2013-01-05 13:42:00,34.4,26.0,29.92,WSW,248,14.0,15.0,71,0.00,,,0.00,Wunderground v.1.15,2013-01-05 19:42:00,
2013-01-05 13:44:00,34.3,26.2,29.92,WSW,245,12.0,15.0,72,0.00,,,0.00,Wunderground v.1.15,2013-01-05 19:44:00,
2013-01-05 13:45:00,34.3,26.2,29.92,WSW,237,11.0,15.0,72,0.00,,,0.00,Wunderground v.1.15,2013-01-05 19:45:00,
2013-01-05 13:46:00,34.3,26.2,29.92,WSW,239,9.0,15.0,72,0.00,,,0.00,Wunderground v.1.15,2013-01-05 19:46:00,
2013-01-05 13:47:00,34.3,26.2,29.92,SW,236,15.0,17.0,72,0.00,,,0.00,Wunderground v.1.15,2013-01-05 19:47:00,
2013-01-05 13:50:00,34.3,26.2,29.92,WSW,251,9.0,13.0,72,0.00,,,0.00,Wunderground v.1.15,2013-01-05 19:50:00,
2013-01-05 13:51:00,34.3,26.2,29.92,West,267,6.0,13.0,72,0.00,,,0.00,Wunderground v.1.15,2013-01-05 19:51:00,
2013-01-05 13:52:00,34.3,26.2,29.92,WSW,255,13.0,13.0,72,0.00,,,0.00,Wunderground v.1.15,2013-01-05 19:52:00,
2013-01-05 13:56:00,34.1,26.0,29.92,WSW,246,12.0,14.0,72,0.00,,,0.00,Wunderground v.1.15,2013-01-05 19:56:00,
2013-01-05 13:57:00,34.1,26.0,29.92,WSW,246,10.0,14.0,72,0.00,,,0.00,Wunderground v.1.15,2013-01-05 19:57:00,
2013-01-05 14:02:00,34.3,26.2,29.92,West,265,7.0,13.0,72,0.00,,,0.00,Wunderground v.1.15,2013-01-05 20:02:00,
2013-01-05 14:03:00,34.3,26.2,29.92,WSW,238,16.0,16.0,72,0.00,,,0.00,Wunderground v.1.15,2013-01-05 20:03:00,
2013-01-05 14:08:00,34.3,26.2,29.92,WSW,255,12.0,16.0,72,0.00,,,0.00,Wunderground v.1.15,2013-01-05 20:08:00,
2013-01-05 14:10:00,34.3,26.2,29.92,SW,233,14.0,14.0,72,0.00,,,0.00,Wunderground v.1.15,2013-01-05 20:10:00,
2013-01-05 14:12:00,34.3,26.2,29.92,SW,229,10.0,15.0,72,0.00,,,0.00,Wunderground v.1.15,2013-01-05 20:12:00,
2013-01-05 14:15:00,34.3,26.2,29.92,WSW,254,17.0,18.0,72,0.00,,,0.00,Wunderground v.1.15,2013-01-05 20:15:00,
2013-01-05 14:16:00,34.3,26.2,29.92,WSW,255,13.0,18.0,72,0.00,,,0.00,Wunderground v.1.15,2013-01-05 20:16:00,
2013-01-05 14:17:00,34.1,26.0,29.92,WSW,255,12.0,18.0,72,0.00,,,0.00,Wunderground v.1.15,2013-01-05 20:17:00,
2013-01-05 14:20:00,34.1,26.0,29.92,WSW,246,14.0,14.0,72,0.00,,,0.00,Wunderground v.1.15,2013-01-05 20:20:00,
2013-01-05 14:21:00,34.1,26.3,29.92,SW,228,17.0,17.0,73,0.00,,,0.00,Wunderground v.1.15,2013-01-05 20:21:00,
2013-01-05 14:22:00,34.1,26.3,29.92,West,260,15.0,17.0,73,0.00,,,0.00,Wunderground v.1.15,2013-01-05 20:22:00,
2013-01-05 14:26:00,34.0,26.3,29.93,WSW,241,18.0,18.0,73,0.00,,,0.00,Wunderground v.1.15,2013-01-05 20:26:00,
2013-01-05 14:27:00,34.0,26.3,29.93,WSW,252,18.0,18.0,73,0.00,,,0.00,Wunderground v.1.15,2013-01-05 20:27:00,
2013-01-05 14:28:00,34.0,26.3,29.93,SW,228,10.0,18.0,73,0.00,,,0.00,Wunderground v.1.15,2013-01-05 20:28:00,
2013-01-05 14:32:00,34.0,26.6,29.93,WSW,257,19.0,21.0,74,0.00,,,0.00,Wunderground v.1.15,2013-01-05 20:32:00,
2013-01-05 14:36:00,33.8,26.4,29.93,SW,232,22.0,22.0,74,0.00,,,0.00,Wunderground v.1.15,2013-01-05 20:36:00,
2013-01-05 14:38:00,33.8,26.4,29.93,WSW,254,15.0,22.0,74,0.00,,,0.00,Wunderground v.1.15,2013-01-05 20:38:00,
2013-01-05 14:41:00,33.8,26.4,29.93,West,261,17.0,19.0,74,0.00,,,0.00,Wunderground v.1.15,2013-01-05 20:41:00,
2013-01-05 14:42:00,33.8,26.4,29.93,WSW,245,6.0,19.0,74,0.00,,,0.00,Wunderground v.1.15,2013-01-05 20:42:00,
2013-01-05 14:43:00,33.8,26.7,29.93,SW,229,16.0,19.0,75,0.00,,,0.00,Wunderground v.1.15,2013-01-05 20:43:00,
2013-01-05 14:46:00,33.8,26.7,29.93,West,266,10.0,19.0,75,0.00,,,0.00,Wunderground v.1.15,2013-01-05 20:46:00,
2013-01-05 14:47:00,33.8,26.7,29.93,WSW,243,14.0,19.0,75,0.00,,,0.00,Wunderground v.1.15,2013-01-05 20:47:00,
2013-01-05 14:50:00,33.8,26.7,29.93,WSW,253,13.0,13.0,75,0.00,,,0.00,Wunderground v.1.15,2013-01-05 20:50:00,
2013-01-05 14:51:00,33.8,26.7,29.93,SW,227,13.0,18.0,75,0.00,,,0.00,Wunderground v.1.15,2013-01-05 20:51:00,
2013-01-05 14:52:00,33.8,26.7,29.93,WSW,238,10.0,18.0,75,0.00,,,0.00,Wunderground v.1.15,2013-01-05 20:52:00,
2013-01-05 14:56:00,33.8,26.7,29.93,WSW,248,21.0,21.0,75,0.00,,,0.00,Wunderground v.1.15,2013-01-05 20:56:00,
2013-01-05 14:57:00,33.8,26.7,29.93,WSW,256,17.0,23.0,75,0.00,,,0.00,Wunderground v.1.15,2013-01-05 20:57:00,
2013-01-05 15:01:00,33.8,26.7,29.93,West,262,14.0,15.0,75,0.00,,,0.00,Wunderground v.1.15,2013-01-05 21:01:00,
2013-01-05 15:02:00,33.8,26.7,29.93,West,267,11.0,17.0,75,0.00,,,0.00,Wunderground v.1.15,2013-01-05 21:02:00,
2013-01-05 15:05:00,33.8,26.7,29.93,WSW,255,13.0,17.0,75,0.00,,,0.00,Wunderground v.1.15,2013-01-05 21:05:00,
2013-01-05 15:07:00,33.8,26.7,29.93,WSW,248,13.0,17.0,75,0.00,,,0.00,Wunderground v.1.15,2013-01-05 21:07:00,
2013-01-05 15:10:00,33.8,26.7,29.93,WSW,253,16.0,16.0,75,0.00,,,0.00,Wunderground v.1.15,2013-01-05 21:10:00,
2013-01-05 15:11:00,33.8,26.7,29.93,WSW,250,6.0,16.0,75,0.00,,,0.00,Wunderground v.1.15,2013-01-05 21:11:00,
2013-01-05 15:12:00,33.8,26.7,29.93,WSW,248,14.0,16.0,75,0.00,,,0.00,Wunderground v.1.15,2013-01-05 21:12:00,
2013-01-05 15:16:00,33.7,26.6,29.93,West,268,16.0,18.0,75,0.00,,,0.00,Wunderground v.1.15,2013-01-05 21:16:00,
2013-01-05 15:17:00,33.8,26.7,29.93,West,275,14.0,18.0,75,0.00,,,0.00,Wunderground v.1.15,2013-01-05 21:17:00,
2013-01-05 15:20:00,33.8,26.7,29.93,WSW,250,10.0,13.0,75,0.00,,,0.00,Wunderground v.1.15,2013-01-05 21:20:00,
2013-01-05 15:21:00,33.8,26.7,29.93,SW,231,13.0,13.0,75,0.00,,,0.00,Wunderground v.1.15,2013-01-05 21:21:00,
2013-01-05 15:22:00,33.7,26.6,29.93,WSW,252,10.0,13.0,75,0.00,,,0.00,Wunderground v.1.15,2013-01-05 21:22:00,
2013-01-05 15:26:00,33.7,26.6,29.92,SW,231,15.0,17.0,75,0.00,,,0.00,Wunderground v.1.15,2013-01-05 21:26:00,
2013-01-05 15:27:00,33.7,26.6,29.92,West,268,10.0,17.0,75,0.00,,,0.00,Wunderground v.1.15,2013-01-05 21:27:00,
2013-01-05 15:28:00,33.7,26.6,29.92,WSW,239,12.0,17.0,75,0.00,,,0.00,Wunderground v.1.15,2013-01-05 21:28:00,
2013-01-05 15:32:00,33.5,26.7,29.92,West,265,10.0,13.0,76,0.00,,,0.00,Wunderground v.1.15,2013-01-05 21:32:00,
2013-01-05 15:33:00,33.5,26.7,29.92,SW,233,6.0,13.0,76,0.00,,,0.00,Wunderground v.1.15,2013-01-05 21:33:00,
2013-01-05 15:36:00,33.5,27.1,29.92,WSW,245,14.0,14.0,77,0.00,,,0.00,Wunderground v.1.15,2013-01-05 21:36:00,
2013-01-05 15:37:00,33.5,27.1,29.92,SW,231,11.0,14.0,77,0.00,,,0.00,Wunderground v.1.15,2013-01-05 21:37:00,
2013-01-05 15:40:00,33.5,27.4,29.92,West,269,12.0,12.0,78,0.00,,,0.00,Wunderground v.1.15,2013-01-05 21:40:00,
2013-01-05 15:41:00,33.5,27.7,29.92,WSW,239,18.0,18.0,79,0.00,,,0.00,Wunderground v.1.15,2013-01-05 21:41:00,
2013-01-05 15:42:00,33.5,27.7,29.92,WSW,247,15.0,19.0,79,0.00,,,0.00,Wunderground v.1.15,2013-01-05 21:42:00,
2013-01-05 15:45:00,33.4,27.9,29.92,WSW,241,7.0,19.0,80,0.00,,,0.00,Wunderground v.1.15,2013-01-05 21:45:00,
2013-01-05 15:46:00,33.4,27.9,29.92,WSW,248,15.0,19.0,80,0.00,,,0.00,Wunderground v.1.15,2013-01-05 21:46:00,
2013-01-05 15:47:00,33.4,28.2,29.92,West,264,11.0,19.0,81,0.00,,,0.00,Wunderground v.1.15,2013-01-05 21:47:00,
2013-01-05 15:51:00,33.2,28.3,29.92,WSW,254,14.0,17.0,82,0.00,,,0.00,Wunderground v.1.15,2013-01-05 21:51:00,
2013-01-05 15:52:00,33.2,28.6,29.92,West,260,11.0,17.0,83,0.00,,,0.00,Wunderground v.1.15,2013-01-05 21:52:00,
2013-01-05 15:53:00,33.1,28.5,29.91,WSW,246,6.0,17.0,83,0.00,,,0.00,Wunderground v.1.15,2013-01-05 21:53:00,
2013-01-05 15:57:00,32.9,28.9,29.91,WSW,252,10.0,17.0,85,0.00,,,0.00,Wunderground v.1.15,2013-01-05 21:57:00,
2013-01-05 16:00:00,32.8,29.1,29.91,WSW,249,9.0,11.0,86,0.00,,,0.00,Wunderground v.1.15,2013-01-05 22:00:00,
2013-01-05 16:01:00,32.8,29.1,29.91,West,271,6.0,11.0,86,0.00,,,0.00,Wunderground v.1.15,2013-01-05 22:01:00,
2013-01-05 16:02:00,32.7,29.3,29.91,WSW,255,13.0,13.0,87,0.00,,,0.00,Wunderground v.1.15,2013-01-05 22:02:00,
2013-01-05 16:03:00,32.7,29.3,29.91,WSW,255,9.0,13.0,87,0.00,,,0.00,Wunderground v.1.15,2013-01-05 22:03:00,
2013-01-05 16:06:00,32.5,29.3,29.91,WNW,294,10.0,13.0,88,0.00,,,0.00,Wunderground v.1.15,2013-01-05 22:06:00,
2013-01-05 16:07:00,32.5,29.6,29.91,WSW,239,11.0,13.0,89,0.00,,,0.00,Wunderground v.1.15,2013-01-05 22:07:00,
2013-01-05 16:10:00,32.4,29.5,29.92,WSW,255,11.0,11.0,89,0.00,,,0.00,Wunderground v.1.15,2013-01-05 22:10:00,
2013-01-05 16:11:00,32.4,29.8,29.92,WSW,240,7.0,13.0,90,0.00,,,0.00,Wunderground v.1.15,2013-01-05 22:11:00,
2013-01-05 16:12:00,32.4,29.8,29.92,WSW,258,12.0,15.0,90,0.00,,,0.00,Wunderground v.1.15,2013-01-05 22:12:00,
2013-01-05 16:15:00,32.2,29.9,29.92,WSW,238,9.0,15.0,91,0.00,,,0.00,Wunderground v.1.15,2013-01-05 22:15:00,
2013-01-05 16:16:00,32.2,29.9,29.92,WSW,254,7.0,15.0,91,0.00,,,0.00,Wunderground v.1.15,2013-01-05 22:16:00,
2013-01-05 16:17:00,32.2,29.9,29.92,WSW,247,8.0,15.0,91,0.00,,,0.00,Wunderground v.1.15,2013-01-05 22:17:00,
2013-01-05 16:18:00,32.2,29.9,29.92,West,263,6.0,15.0,91,0.00,,,0.00,Wunderground v.1.15,2013-01-05 22:18:00,
2013-01-05 16:20:00,32.2,29.9,29.92,WSW,238,6.0,9.0,91,0.00,,,0.00,Wunderground v.1.15,2013-01-05 22:20:00,
2013-01-05 16:21:00,32.2,30.1,29.92,WSW,238,5.0,9.0,92,0.00,,,0.00,Wunderground v.1.15,2013-01-05 22:21:00,
2013-01-05 16:22:00,32.1,30.0,29.92,WSW,246,8.0,9.0,92,0.00,,,0.00,Wunderground v.1.15,2013-01-05 22:22:00,
2013-01-05 16:25:00,32.1,30.0,29.91,SW,227,9.0,9.0,92,0.00,,,0.00,Wunderground v.1.15,2013-01-05 22:25:00,
2013-01-05 16:26:00,32.1,30.0,29.91,WSW,257,9.0,9.0,92,0.00,,,0.00,Wunderground v.1.15,2013-01-05 22:26:00,
2013-01-05 16:27:00,32.1,30.0,29.91,WSW,244,7.0,9.0,92,0.00,,,0.00,Wunderground v.1.15,2013-01-05 22:27:00,
2013-01-05 16:28:00,32.1,30.0,29.91,WSW,242,6.0,9.0,92,0.00,,,0.00,Wunderground v.1.15,2013-01-05 22:28:00,
2013-01-05 16:31:00,32.1,30.3,29.91,SW,236,8.0,10.0,93,0.00,,,0.00,Wunderground v.1.15,2013-01-05 22:31:00,
2013-01-05 16:32:00,32.1,30.3,29.91,WSW,253,5.0,10.0,93,0.00,,,0.00,Wunderground v.1.15,2013-01-05 22:32:00,
2013-01-05 16:35:00,32.1,30.3,29.91,WSW,250,5.0,10.0,93,0.00,,,0.00,Wunderground v.1.15,2013-01-05 22:35:00,
2013-01-05 16:36:00,32.1,30.3,29.91,WSW,254,10.0,10.0,93,0.00,,,0.00,Wunderground v.1.15,2013-01-05 22:36:00,
2013-01-05 16:37:00,32.1,30.3,29.91,WSW,240,6.0,11.0,93,0.00,,,0.00,Wunderground v.1.15,2013-01-05 22:37:00,
2013-01-05 16:40:00,32.1,30.6,29.90,SW,232,6.0,11.0,94,0.00,,,0.00,Wunderground v.1.15,2013-01-05 22:40:00,
2013-01-05 16:41:00,32.1,30.6,29.90,SW,227,5.0,11.0,94,0.00,,,0.00,Wunderground v.1.15,2013-01-05 22:41:00,
2013-01-05 16:42:00,32.1,30.6,29.90,WSW,257,5.0,11.0,94,0.00,,,0.00,Wunderground v.1.15,2013-01-05 22:42:00,
2013-01-05 16:43:00,32.1,30.6,29.90,WSW,242,5.0,11.0,94,0.00,,,0.00,Wunderground v.1.15,2013-01-05 22:43:00,
2013-01-05 16:45:00,32.2,30.7,29.90,SSW,206,5.0,11.0,94,0.00,,,0.00,Wunderground v.1.15,2013-01-05 22:45:00,
2013-01-05 16:50:00,32.2,30.9,29.90,SW,233,6.0,7.0,95,0.00,,,0.00,Wunderground v.1.15,2013-01-05 22:50:00,
2013-01-05 16:51:00,32.2,30.9,29.90,WSW,250,9.0,11.0,95,0.00,,,0.00,Wunderground v.1.15,2013-01-05 22:51:00,
2013-01-05 16:55:00,32.2,30.9,29.90,SW,236,7.0,11.0,95,0.00,,,0.00,Wunderground v.1.15,2013-01-05 22:55:00,
2013-01-05 16:56:00,32.2,30.9,29.90,SW,233,6.0,11.0,95,0.00,,,0.00,Wunderground v.1.15,2013-01-05 22:56:00,
2013-01-05 16:57:00,32.4,31.1,29.90,WSW,250,9.0,11.0,95,0.00,,,0.00,Wunderground v.1.15,2013-01-05 22:57:00,
2013-01-05 17:00:00,32.4,31.1,29.90,SW,224,6.0,11.0,95,0.00,,,0.00,Wunderground v.1.15,2013-01-05 23:00:00,
2013-01-05 17:01:00,32.4,31.1,29.90,SSW,205,3.0,11.0,95,0.00,,,0.00,Wunderground v.1.15,2013-01-05 23:01:00,
2013-01-05 17:03:00,32.4,31.1,29.90,South,176,8.0,13.0,95,0.00,,,0.00,Wunderground v.1.15,2013-01-05 23:03:00,
2013-01-05 17:06:00,32.4,31.4,29.90,WSW,239,5.0,13.0,96,0.00,,,0.00,Wunderground v.1.15,2013-01-05 23:06:00,
2013-01-05 17:11:00,32.4,31.4,29.89,WSW,245,11.0,11.0,96,0.00,,,0.00,Wunderground v.1.15,2013-01-05 23:11:00,
2013-01-05 17:12:00,32.5,31.5,29.89,SSW,200,5.0,11.0,96,0.00,,,0.00,Wunderground v.1.15,2013-01-05 23:12:00,
2013-01-05 17:16:00,32.5,31.5,29.89,SSW,213,7.0,11.0,96,0.00,,,0.00,Wunderground v.1.15,2013-01-05 23:16:00,
2013-01-05 17:17:00,32.5,31.5,29.89,SW,223,12.0,12.0,96,0.00,,,0.00,Wunderground v.1.15,2013-01-05 23:17:00,
2013-01-05 17:20:00,32.5,31.5,29.89,SW,236,10.0,10.0,96,0.00,,,0.00,Wunderground v.1.15,2013-01-05 23:20:00,
2013-01-05 17:22:00,32.5,31.5,29.89,SW,218,6.0,11.0,96,0.00,,,0.00,Wunderground v.1.15,2013-01-05 23:22:00,
2013-01-05 17:24:00,32.5,31.5,29.89,SW,232,6.0,11.0,96,0.00,,,0.00,Wunderground v.1.15,2013-01-05 23:24:00,
2013-01-05 17:26:00,32.5,31.5,29.89,SW,236,14.0,14.0,96,0.00,,,0.00,Wunderground v.1.15,2013-01-05 23:26:00,
2013-01-05 17:27:00,32.7,31.7,29.89,SW,226,10.0,14.0,96,0.00,,,0.00,Wunderground v.1.15,2013-01-05 23:27:00,
2013-01-05 17:31:00,32.7,31.7,29.89,WSW,245,6.0,9.0,96,0.00,,,0.00,Wunderground v.1.15,2013-01-05 23:31:00,
2013-01-05 17:32:00,32.7,31.7,29.89,WSW,245,10.0,10.0,96,0.00,,,0.00,Wunderground v.1.15,2013-01-05 23:32:00,
2013-01-05 17:33:00,32.7,31.7,29.89,SW,233,7.0,12.0,96,0.00,,,0.00,Wunderground v.1.15,2013-01-05 23:33:00,
2013-01-05 17:34:00,32.7,31.7,29.89,SW,219,6.0,12.0,96,0.00,,,0.00,Wunderground v.1.15,2013-01-05 23:34:00,
2013-01-05 17:36:00,32.7,31.7,29.89,SW,214,11.0,12.0,96,0.00,,,0.00,Wunderground v.1.15,2013-01-05 23:36:00,
2013-01-05 17:38:00,32.7,31.7,29.89,West,259,10.0,12.0,96,0.00,,,0.00,Wunderground v.1.15,2013-01-05 23:38:00,
2013-01-05 17:40:00,32.7,31.7,29.89,SW,231,7.0,9.0,96,0.00,,,0.00,Wunderground v.1.15,2013-01-05 23:40:00,
2013-01-05 17:42:00,32.7,31.7,29.89,WSW,246,10.0,11.0,96,0.00,,,0.00,Wunderground v.1.15,2013-01-05 23:42:00,
2013-01-05 17:43:00,32.7,31.7,29.89,WSW,243,6.0,11.0,96,0.00,,,0.00,Wunderground v.1.15,2013-01-05 23:43:00,
2013-01-05 17:46:00,32.7,31.7,29.89,SW,236,5.0,11.0,96,0.00,,,0.00,Wunderground v.1.15,2013-01-05 23:46:00,
2013-01-05 17:48:00,32.7,31.7,29.89,WSW,242,6.0,11.0,96,0.00,,,0.00,Wunderground v.1.15,2013-01-05 23:48:00,
2013-01-05 17:52:00,32.5,31.5,29.89,WSW,238,7.0,15.0,96,0.00,,,0.00,Wunderground v.1.15,2013-01-05 23:52:00,
2013-01-05 17:55:00,32.5,31.7,29.89,SW,226,10.0,15.0,97,0.00,,,0.00,Wunderground v.1.15,2013-01-05 23:55:00,
2013-01-05 17:56:00,32.5,31.7,29.89,SW,232,10.0,15.0,97,0.00,,,0.00,Wunderground v.1.15,2013-01-05 23:56:00,
2013-01-05 17:57:00,32.5,31.7,29.89,SW,231,11.0,15.0,97,0.00,,,0.00,Wunderground v.1.15,2013-01-05 23:57:00,
2013-01-05 17:58:00,32.5,31.7,29.89,WSW,248,11.0,15.0,97,0.00,,,0.00,Wunderground v.1.15,2013-01-05 23:58:00,
2013-01-05 18:01:00,32.5,31.7,29.89,SW,224,6.0,10.0,97,0.00,,,0.00,Wunderground v.1.15,2013-01-06 00:01:00,
2013-01-05 18:05:00,32.5,31.7,29.89,SW,222,6.0,11.0,97,0.00,,,0.00,Wunderground v.1.15,2013-01-06 00:05:00,
2013-01-05 18:06:00,32.5,31.7,29.89,WSW,248,10.0,11.0,97,0.00,,,0.00,Wunderground v.1.15,2013-01-06 00:06:00,
2013-01-05 18:11:00,32.5,31.7,29.89,West,264,12.0,13.0,97,0.00,,,0.00,Wunderground v.1.15,2013-01-06 00:11:00,
2013-01-05 18:12:00,32.5,31.7,29.89,SW,236,11.0,14.0,97,0.00,,,0.00,Wunderground v.1.15,2013-01-06 00:12:00,
2013-01-05 18:16:00,32.5,31.7,29.89,WSW,242,8.0,14.0,97,0.00,,,0.00,Wunderground v.1.15,2013-01-06 00:16:00,
2013-01-05 18:17:00,32.5,31.7,29.89,WSW,240,13.0,14.0,97,0.00,,,0.00,Wunderground v.1.15,2013-01-06 00:17:00,
2013-01-05 18:21:00,32.5,31.7,29.89,WSW,241,7.0,11.0,97,0.00,,,0.00,Wunderground v.1.15,2013-01-06 00:21:00,
2013-01-05 18:22:00,32.4,31.6,29.89,WSW,250,9.0,11.0,97,0.00,,,0.00,Wunderground v.1.15,2013-01-06 00:22:00,
2013-01-05 18:23:00,32.4,31.6,29.89,West,266,9.0,11.0,97,0.00,,,0.00,Wunderground v.1.15,2013-01-06 00:23:00,
2013-01-05 18:25:00,32.4,31.6,29.89,West,262,11.0,11.0,97,0.00,,,0.00,Wunderground v.1.15,2013-01-06 00:25:00,
2013-01-05 18:27:00,32.4,31.6,29.89,WSW,248,11.0,11.0,97,0.00,,,0.00,Wunderground v.1.15,2013-01-06 00:27:00,
2013-01-05 18:30:00,32.4,31.6,29.89,West,259,8.0,9.0,97,0.00,,,0.00,Wunderground v.1.15,2013-01-06 00:30:00,
2013-01-05 18:31:00,32.4,31.6,29.89,West,259,11.0,13.0,97,0.00,,,0.00,Wunderground v.1.15,2013-01-06 00:31:00,
2013-01-05 18:33:00,32.4,31.6,29.89,WSW,242,6.0,13.0,97,0.00,,,0.00,Wunderground v.1.15,2013-01-06 00:33:00,
2013-01-05 18:35:00,32.4,31.6,29.89,WSW,249,11.0,13.0,97,0.00,,,0.00,Wunderground v.1.15,2013-01-06 00:35:00,
2013-01-05 18:37:00,32.4,31.6,29.89,WSW,250,11.0,13.0,97,0.00,,,0.00,Wunderground v.1.15,2013-01-06 00:37:00,
2013-01-05 18:40:00,32.5,31.7,29.89,WNW,283,9.0,10.0,97,0.00,,,0.00,Wunderground v.1.15,2013-01-06 00:40:00,
2013-01-05 18:41:00,32.4,31.6,29.89,WSW,237,5.0,10.0,97,0.00,,,0.00,Wunderground v.1.15,2013-01-06 00:41:00,
2013-01-05 18:43:00,32.5,31.7,29.89,WSW,252,6.0,11.0,97,0.00,,,0.00,Wunderground v.1.15,2013-01-06 00:43:00,
2013-01-05 18:45:00,32.5,31.7,29.89,WSW,251,9.0,11.0,97,0.00,,,0.00,Wunderground v.1.15,2013-01-06 00:45:00,
2013-01-05 18:46:00,32.5,31.7,29.89,WSW,252,6.0,11.0,97,0.00,,,0.00,Wunderground v.1.15,2013-01-06 00:46:00,
2013-01-05 18:51:00,32.5,31.7,29.89,WSW,242,9.0,10.0,97,0.00,,,0.00,Wunderground v.1.15,2013-01-06 00:51:00,
2013-01-05 18:52:00,32.5,31.7,29.89,West,266,6.0,12.0,97,0.00,,,0.00,Wunderground v.1.15,2013-01-06 00:52:00,
2013-01-05 18:56:00,32.5,31.7,29.89,West,260,5.0,12.0,97,0.00,,,0.00,Wunderground v.1.15,2013-01-06 00:56:00,
2013-01-05 18:57:00,32.5,31.7,29.89,West,259,5.0,12.0,97,0.00,,,0.00,Wunderground v.1.15,2013-01-06 00:57:00,
2013-01-05 18:58:00,32.5,31.7,29.89,West,271,13.0,13.0,97,0.00,,,0.00,Wunderground v.1.15,2013-01-06 00:58:00,
2013-01-05 19:02:00,32.5,32.0,29.89,WSW,254,9.0,11.0,98,0.00,,,0.00,Wunderground v.1.15,2013-01-06 01:02:00,
2013-01-05 19:03:00,32.5,32.0,29.89,WSW,255,10.0,12.0,98,0.00,,,0.00,Wunderground v.1.15,2013-01-06 01:03:00,
2013-01-05 19:04:00,32.5,32.0,29.89,SW,235,7.0,12.0,98,0.00,,,0.00,Wunderground v.1.15,2013-01-06 01:04:00,
2013-01-05 19:07:00,32.5,32.0,29.89,WSW,257,9.0,16.0,98,0.00,,,0.00,Wunderground v.1.15,2013-01-06 01:07:00,
2013-01-05 19:10:00,32.5,32.0,29.88,West,261,11.0,11.0,98,0.00,,,0.00,Wunderground v.1.15,2013-01-06 01:10:00,
2013-01-05 19:11:00,32.5,32.0,29.88,SW,234,11.0,11.0,98,0.00,,,0.00,Wunderground v.1.15,2013-01-06 01:11:00,
2013-01-05 19:13:00,32.5,32.0,29.88,WSW,247,5.0,12.0,98,0.00,,,0.00,Wunderground v.1.15,2013-01-06 01:13:00,
2013-01-05 19:16:00,32.5,32.0,29.88,SW,232,9.0,12.0,98,0.00,,,0.00,Wunderground v.1.15,2013-01-06 01:16:00,
2013-01-05 19:21:00,32.7,32.2,29.88,WSW,241,9.0,10.0,98,0.00,,,0.00,Wunderground v.1.15,2013-01-06 01:21:00,
2013-01-05 19:22:00,32.7,32.2,29.88,WSW,242,12.0,12.0,98,0.00,,,0.00,Wunderground v.1.15,2013-01-06 01:22:00,
2013-01-05 19:23:00,32.7,32.2,29.88,WSW,254,12.0,12.0,98,0.00,,,0.00,Wunderground v.1.15,2013-01-06 01:23:00,
2013-01-05 19:26:00,32.7,32.2,29.88,SW,233,13.0,14.0,98,0.00,,,0.00,Wunderground v.1.15,2013-01-06 01:26:00,
2013-01-05 19:28:00,32.7,32.2,29.88,WSW,253,8.0,14.0,98,0.00,,,0.00,Wunderground v.1.15,2013-01-06 01:28:00,
2013-01-05 19:31:00,32.7,32.2,29.88,WSW,238,12.0,13.0,98,0.00,,,0.00,Wunderground v.1.15,2013-01-06 01:31:00,
2013-01-05 19:33:00,32.7,32.2,29.88,SW,235,8.0,13.0,98,0.00,,,0.00,Wunderground v.1.15,2013-01-06 01:33:00,
2013-01-05 19:36:00,32.7,32.2,29.88,WSW,252,13.0,13.0,98,0.00,,,0.00,Wunderground v.1.15,2013-01-06 01:36:00,
2013-01-05 19:37:00,32.7,32.2,29.88,West,262,5.0,13.0,98,0.00,,,0.00,Wunderground v.1.15,2013-01-06 01:37:00,
2013-01-05 19:38:00,32.7,32.2,29.88,SW,216,6.0,13.0,98,0.00,,,0.00,Wunderground v.1.15,2013-01-06 01:38:00,
2013-01-05 19:41:00,32.7,32.2,29.87,SW,232,11.0,12.0,98,0.00,,,0.00,Wunderground v.1.15,2013-01-06 01:41:00,
2013-01-05 19:42:00,32.7,32.2,29.87,WSW,247,6.0,12.0,98,0.00,,,0.00,Wunderground v.1.15,2013-01-06 01:42:00,
2013-01-05 19:46:00,32.7,32.2,29.87,West,267,9.0,13.0,98,0.00,,,0.00,Wunderground v.1.15,2013-01-06 01:46:00,
2013-01-05 19:47:00,32.7,32.2,29.87,WSW,255,6.0,13.0,98,0.00,,,0.00,Wunderground v.1.15,2013-01-06 01:47:00,
2013-01-05 19:48:00,32.7,32.2,29.87,SW,225,10.0,13.0,98,0.00,,,0.00,Wunderground v.1.15,2013-01-06 01:48:00,
2013-01-05 19:52:00,32.7,32.2,29.87,WSW,242,10.0,12.0,98,0.00,,,0.00,Wunderground v.1.15,2013-01-06 01:52:00,
2013-01-05 19:53:00,32.7,32.2,29.87,SW,222,11.0,12.0,98,0.00,,,0.00,Wunderground v.1.15,2013-01-06 01:53:00,
2013-01-05 19:58:00,32.7,32.2,29.86,SW,223,7.0,13.0,98,0.00,,,0.00,Wunderground v.1.15,2013-01-06 01:58:00,
2013-01-05 20:00:00,32.8,32.3,29.86,WSW,247,11.0,11.0,98,0.00,,,0.00,Wunderground v.1.15,2013-01-06 02:00:00,
2013-01-05 20:01:00,32.8,32.3,29.86,SW,223,9.0,11.0,98,0.00,,,0.00,Wunderground v.1.15,2013-01-06 02:01:00,
2013-01-05 20:05:00,32.8,32.3,29.86,SW,229,14.0,17.0,98,0.00,,,0.00,Wunderground v.1.15,2013-01-06 02:05:00,
2013-01-05 20:06:00,32.8,32.3,29.86,WSW,252,9.0,17.0,98,0.00,,,0.00,Wunderground v.1.15,2013-01-06 02:06:00,
2013-01-05 20:07:00,32.8,32.3,29.86,West,261,9.0,17.0,98,0.00,,,0.00,Wunderground v.1.15,2013-01-06 02:07:00,
2013-01-05 20:11:00,32.8,32.3,29.86,WSW,244,10.0,12.0,98,0.00,,,0.00,Wunderground v.1.15,2013-01-06 02:11:00,
2013-01-05 20:12:00,32.9,32.4,29.86,West,271,12.0,15.0,98,0.00,,,0.01,Wunderground v.1.15,2013-01-06 02:12:00,
2013-01-05 20:13:00,32.9,32.4,29.86,WSW,250,11.0,15.0,98,0.00,,,0.01,Wunderground v.1.15,2013-01-06 02:13:00,
2013-01-05 20:16:00,32.9,32.4,29.86,West,261,10.0,15.0,98,0.00,,,0.01,Wunderground v.1.15,2013-01-06 02:16:00,
2013-01-05 20:20:00,32.9,32.4,29.86,West,261,13.0,13.0,98,0.00,,,0.01,Wunderground v.1.15,2013-01-06 02:20:00,
2013-01-05 20:21:00,32.9,32.4,29.86,WSW,252,12.0,13.0,98,0.00,,,0.01,Wunderground v.1.15,2013-01-06 02:21:00,
2013-01-05 20:25:00,33.1,32.6,29.86,WSW,251,10.0,16.0,98,0.00,,,0.01,Wunderground v.1.15,2013-01-06 02:25:00,
2013-01-05 20:26:00,33.1,32.6,29.86,WSW,239,13.0,16.0,98,0.00,,,0.01,Wunderground v.1.15,2013-01-06 02:26:00,
2013-01-05 20:30:00,33.1,32.6,29.86,WSW,254,10.0,12.0,98,0.00,,,0.01,Wunderground v.1.15,2013-01-06 02:30:00,
2013-01-05 20:31:00,33.1,32.6,29.86,West,276,10.0,13.0,98,0.00,,,0.01,Wunderground v.1.15,2013-01-06 02:31:00,
2013-01-05 20:32:00,33.1,32.6,29.86,WSW,246,16.0,16.0,98,0.00,,,0.01,Wunderground v.1.15,2013-01-06 02:32:00,
2013-01-05 20:36:00,33.1,32.6,29.86,WSW,239,10.0,18.0,98,0.00,,,0.01,Wunderground v.1.15,2013-01-06 02:36:00,
2013-01-05 20:37:00,33.1,32.6,29.86,SW,236,14.0,18.0,98,0.00,,,0.01,Wunderground v.1.15,2013-01-06 02:37:00,
2013-01-05 20:41:00,33.1,32.6,29.85,West,281,7.0,13.0,98,0.00,,,0.02,Wunderground v.1.15,2013-01-06 02:41:00,
2013-01-05 20:42:00,33.1,32.6,29.85,WSW,252,7.0,13.0,98,0.00,,,0.02,Wunderground v.1.15,2013-01-06 02:42:00,
2013-01-05 20:43:00,33.2,32.7,29.85,WSW,252,13.0,16.0,98,0.00,,,0.02,Wunderground v.1.15,2013-01-06 02:43:00,
2013-01-05 20:47:00,33.2,32.7,29.85,WSW,248,9.0,16.0,98,0.00,,,0.02,Wunderground v.1.15,2013-01-06 02:47:00,
2013-01-05 20:51:00,33.1,32.6,29.85,West,259,11.0,11.0,98,0.00,,,0.02,Wunderground v.1.15,2013-01-06 02:51:00,
2013-01-05 20:52:00,33.2,32.7,29.85,WSW,252,14.0,18.0,98,0.00,,,0.02,Wunderground v.1.15,2013-01-06 02:52:00,
2013-01-05 20:55:00,33.2,32.7,29.85,WSW,254,19.0,19.0,98,0.00,,,0.02,Wunderground v.1.15,2013-01-06 02:55:00,
2013-01-05 20:57:00,33.2,32.7,29.85,WSW,243,10.0,20.0,98,0.00,,,0.02,Wunderground v.1.15,2013-01-06 02:57:00,
2013-01-05 21:00:00,33.2,32.7,29.85,West,261,12.0,16.0,98,0.00,,,0.02,Wunderground v.1.15,2013-01-06 03:00:00,
2013-01-05 21:05:00,33.2,32.7,29.85,WSW,238,7.0,18.0,98,0.00,,,0.02,Wunderground v.1.15,2013-01-06 03:05:00,
2013-01-05 21:06:00,33.2,32.7,29.85,SW,233,9.0,18.0,98,0.00,,,0.02,Wunderground v.1.15,2013-01-06 03:06:00,
2013-01-05 21:07:00,33.2,32.7,29.85,WSW,245,18.0,19.0,98,0.00,,,0.03,Wunderground v.1.15,2013-01-06 03:07:00,
2013-01-05 21:11:00,33.4,32.9,29.84,WSW,242,10.0,12.0,98,0.00,,,0.03,Wunderground v.1.15,2013-01-06 03:11:00,
2013-01-05 21:12:00,33.4,32.9,29.84,SW,229,17.0,17.0,98,0.00,,,0.03,Wunderground v.1.15,2013-01-06 03:12:00,
2013-01-05 21:16:00,33.4,32.9,29.84,West,269,11.0,18.0,98,0.00,,,0.03,Wunderground v.1.15,2013-01-06 03:16:00,
2013-01-05 21:17:00,33.4,32.9,29.84,West,261,12.0,18.0,98,0.00,,,0.03,Wunderground v.1.15,2013-01-06 03:17:00,
2013-01-05 21:18:00,33.4,32.9,29.84,WSW,238,17.0,18.0,98,0.00,,,0.03,Wunderground v.1.15,2013-01-06 03:18:00,
2013-01-05 21:22:00,33.4,32.9,29.84,SW,235,15.0,15.0,98,0.00,,,0.03,Wunderground v.1.15,2013-01-06 03:22:00,
2013-01-05 21:23:00,33.4,32.9,29.84,West,277,13.0,15.0,98,0.00,,,0.03,Wunderground v.1.15,2013-01-06 03:23:00,
2013-01-05 21:26:00,33.4,32.9,29.84,West,259,6.0,15.0,98,0.00,,,0.03,Wunderground v.1.15,2013-01-06 03:26:00,
2013-01-05 21:27:00,33.4,32.9,29.84,WSW,257,6.0,15.0,98,0.00,,,0.03,Wunderground v.1.15,2013-01-06 03:27:00,
2013-01-05 21:28:00,33.4,32.9,29.84,West,260,13.0,15.0,98,0.00,,,0.03,Wunderground v.1.15,2013-01-06 03:28:00,
2013-01-05 21:32:00,33.4,32.9,29.84,SW,236,17.0,17.0,98,0.00,,,0.04,Wunderground v.1.15,2013-01-06 03:32:00,
2013-01-05 21:33:00,33.4,32.9,29.84,WSW,248,15.0,17.0,98,0.00,,,0.04,Wunderground v.1.15,2013-01-06 03:33:00,
2013-01-05 21:37:00,33.4,32.9,29.84,WSW,255,12.0,19.0,98,0.00,,,0.04,Wunderground v.1.15,2013-01-06 03:37:00,
2013-01-05 21:38:00,33.4,32.9,29.84,WSW,250,12.0,19.0,98,0.00,,,0.04,Wunderground v.1.15,2013-01-06 03:38:00,
2013-01-05 21:40:00,33.4,32.9,29.84,WSW,250,15.0,19.0,98,0.00,,,0.04,Wunderground v.1.15,2013-01-06 03:40:00,
2013-01-05 21:45:00,33.4,32.9,29.84,West,275,12.0,17.0,98,0.00,,,0.04,Wunderground v.1.15,2013-01-06 03:45:00,
2013-01-05 21:46:00,33.4,32.9,29.84,SW,236,14.0,17.0,98,0.00,,,0.04,Wunderground v.1.15,2013-01-06 03:46:00,
2013-01-05 21:50:00,33.4,32.9,29.84,WSW,249,9.0,17.0,98,0.00,,,0.04,Wunderground v.1.15,2013-01-06 03:50:00,
2013-01-05 21:51:00,33.4,32.9,29.84,WSW,250,14.0,14.0,98,0.00,,,0.04,Wunderground v.1.15,2013-01-06 03:51:00,
2013-01-05 21:56:00,33.4,32.9,29.84,West,259,7.0,18.0,98,0.00,,,0.04,Wunderground v.1.15,2013-01-06 03:56:00,
2013-01-05 21:57:00,33.4,32.6,29.84,SW,232,14.0,18.0,97,0.00,,,0.04,Wunderground v.1.15,2013-01-06 03:57:00,
2013-01-05 21:58:00,33.4,32.6,29.84,WSW,246,13.0,18.0,97,0.00,,,0.04,Wunderground v.1.15,2013-01-06 03:58:00,
2013-01-05 22:01:00,33.5,32.7,29.84,West,267,14.0,14.0,97,0.00,,,0.05,Wunderground v.1.15,2013-01-06 04:01:00,
2013-01-05 22:02:00,33.5,32.7,29.84,WNW,282,16.0,16.0,97,0.00,,,0.05,Wunderground v.1.15,2013-01-06 04:02:00,
2013-01-05 22:07:00,33.5,32.7,29.84,West,281,10.0,16.0,97,0.00,,,0.05,Wunderground v.1.15,2013-01-06 04:07:00,
2013-01-05 22:08:00,33.5,32.7,29.84,West,262,14.0,16.0,97,0.00,,,0.05,Wunderground v.1.15,2013-01-06 04:08:00,
2013-01-05 22:10:00,33.5,32.7,29.83,WSW,256,8.0,11.0,97,0.00,,,0.05,Wunderground v.1.15,2013-01-06 04:10:00,
2013-01-05 22:11:00,33.5,32.7,29.83,West,274,14.0,14.0,97,0.00,,,0.05,Wunderground v.1.15,2013-01-06 04:11:00,
2013-01-05 22:12:00,33.5,32.7,29.83,WSW,247,12.0,14.0,97,0.00,,,0.05,Wunderground v.1.15,2013-01-06 04:12:00,
2013-01-05 22:15:00,33.5,32.7,29.83,WSW,257,11.0,14.0,97,0.00,,,0.05,Wunderground v.1.15,2013-01-06 04:15:00,
2013-01-05 22:16:00,33.5,32.7,29.83,West,278,13.0,14.0,97,0.00,,,0.05,Wunderground v.1.15,2013-01-06 04:16:00,
2013-01-05 22:18:00,33.4,32.6,29.83,WSW,251,11.0,17.0,97,0.00,,,0.05,Wunderground v.1.15,2013-01-06 04:18:00,
2013-01-05 22:21:00,33.4,32.6,29.83,West,271,11.0,15.0,97,0.00,,,0.05,Wunderground v.1.15,2013-01-06 04:21:00,
2013-01-05 22:22:00,33.4,32.6,29.83,West,269,12.0,15.0,97,0.00,,,0.05,Wunderground v.1.15,2013-01-06 04:22:00,
2013-01-05 22:23:00,33.5,32.7,29.83,SW,233,11.0,16.0,97,0.00,,,0.05,Wunderground v.1.15,2013-01-06 04:23:00,
2013-01-05 22:25:00,33.5,32.7,29.83,WSW,258,12.0,16.0,97,0.00,,,0.05,Wunderground v.1.15,2013-01-06 04:25:00,
2013-01-05 22:27:00,33.5,32.5,29.83,West,263,14.0,17.0,96,0.00,,,0.05,Wunderground v.1.15,2013-01-06 04:27:00,
2013-01-05 22:28:00,33.5,32.5,29.83,West,259,6.0,17.0,96,0.00,,,0.05,Wunderground v.1.15,2013-01-06 04:28:00,
2013-01-05 22:30:00,33.5,32.5,29.83,WSW,250,15.0,15.0,96,0.00,,,0.06,Wunderground v.1.15,2013-01-06 04:30:00,
2013-01-05 22:32:00,33.5,32.5,29.83,WSW,242,8.0,15.0,96,0.00,,,0.06,Wunderground v.1.15,2013-01-06 04:32:00,
2013-01-05 22:36:00,33.5,32.5,29.83,West,262,11.0,15.0,96,0.00,,,0.06,Wunderground v.1.15,2013-01-06 04:36:00,
2013-01-05 22:37:00,33.5,32.5,29.83,WSW,254,15.0,15.0,96,0.00,,,0.06,Wunderground v.1.15,2013-01-06 04:37:00,
2013-01-05 22:41:00,33.5,32.5,29.83,WNW,286,13.0,13.0,96,0.00,,,0.06,Wunderground v.1.15,2013-01-06 04:41:00,
2013-01-05 22:42:00,33.5,32.5,29.83,West,259,12.0,15.0,96,0.00,,,0.06,Wunderground v.1.15,2013-01-06 04:42:00,
2013-01-05 22:47:00,33.5,32.5,29.83,WSW,245,12.0,15.0,96,0.00,,,0.06,Wunderground v.1.15,2013-01-06 04:47:00,
2013-01-05 22:50:00,33.5,32.5,29.83,West,276,13.0,13.0,96,0.00,,,0.06,Wunderground v.1.15,2013-01-06 04:50:00,
2013-01-05 22:52:00,33.5,32.5,29.83,WSW,254,11.0,14.0,96,0.00,,,0.06,Wunderground v.1.15,2013-01-06 04:52:00,
2013-01-05 22:56:00,33.5,32.2,29.82,WSW,242,8.0,15.0,95,0.00,,,0.06,Wunderground v.1.15,2013-01-06 04:56:00,
2013-01-05 22:57:00,33.5,32.2,29.82,WNW,285,10.0,15.0,95,0.00,,,0.06,Wunderground v.1.15,2013-01-06 04:57:00,
2013-01-05 23:01:00,33.5,32.2,29.82,WSW,244,9.0,11.0,95,0.00,,,0.06,Wunderground v.1.15,2013-01-06 05:01:00,
2013-01-05 23:03:00,33.5,32.2,29.82,WSW,252,15.0,15.0,95,0.00,,,0.06,Wunderground v.1.15,2013-01-06 05:03:00,
2013-01-05 23:06:00,33.5,32.2,29.82,West,267,6.0,15.0,95,0.00,,,0.06,Wunderground v.1.15,2013-01-06 05:06:00,
2013-01-05 23:08:00,33.5,32.2,29.82,West,267,9.0,15.0,95,0.00,,,0.06,Wunderground v.1.15,2013-01-06 05:08:00,
2013-01-05 23:11:00,33.5,32.2,29.82,WSW,237,13.0,13.0,95,0.00,,,0.00,Wunderground v.1.15,2013-01-06 05:11:00,
2013-01-05 23:12:00,33.5,32.2,29.82,West,273,13.0,13.0,95,0.00,,,0.00,Wunderground v.1.15,2013-01-06 05:12:00,
2013-01-05 23:15:00,33.5,32.0,29.82,WSW,243,12.0,13.0,94,0.00,,,0.00,Wunderground v.1.15,2013-01-06 05:15:00,
2013-01-05 23:17:00,33.5,32.0,29.82,WSW,248,12.0,13.0,94,0.00,,,0.00,Wunderground v.1.15,2013-01-06 05:17:00,
2013-01-05 23:18:00,33.5,32.0,29.82,WSW,258,9.0,13.0,94,0.00,,,0.00,Wunderground v.1.15,2013-01-06 05:18:00,
2013-01-05 23:20:00,33.5,32.0,29.82,WSW,238,11.0,12.0,94,0.00,,,0.00,Wunderground v.1.15,2013-01-06 05:20:00,
2013-01-05 23:22:00,33.5,32.0,29.82,West,271,7.0,12.0,94,0.00,,,0.00,Wunderground v.1.15,2013-01-06 05:22:00,
2013-01-05 23:25:00,33.5,32.0,29.81,West,259,9.0,12.0,94,0.00,,,0.00,Wunderground v.1.15,2013-01-06 05:25:00,
2013-01-05 23:26:00,33.5,32.0,29.81,WSW,255,11.0,12.0,94,0.00,,,0.00,Wunderground v.1.15,2013-01-06 05:26:00,
2013-01-05 23:27:00,33.5,32.0,29.81,SW,227,10.0,14.0,94,0.00,,,0.00,Wunderground v.1.15,2013-01-06 05:27:00,
2013-01-05 23:28:00,33.7,32.2,29.81,West,274,6.0,14.0,94,0.00,,,0.00,Wunderground v.1.15,2013-01-06 05:28:00,
2013-01-05 23:30:00,33.7,32.2,29.81,WSW,248,13.0,13.0,94,0.00,,,0.00,Wunderground v.1.15,2013-01-06 05:30:00,
2013-01-05 23:32:00,33.7,32.2,29.81,WSW,237,9.0,15.0,94,0.00,,,0.00,Wunderground v.1.15,2013-01-06 05:32:00,
2013-01-05 23:33:00,33.7,32.2,29.81,WSW,239,14.0,15.0,94,0.00,,,0.00,Wunderground v.1.15,2013-01-06 05:33:00,
2013-01-05 23:35:00,33.7,32.2,29.81,West,278,8.0,15.0,94,0.00,,,0.00,Wunderground v.1.15,2013-01-06 05:35:00,
2013-01-05 23:37:00,33.7,32.2,29.81,WSW,255,11.0,16.0,94,0.00,,,0.00,Wunderground v.1.15,2013-01-06 05:37:00,
2013-01-05 23:38:00,33.7,32.2,29.80,WSW,246,5.0,16.0,94,0.00,,,0.00,Wunderground v.1.15,2013-01-06 05:38:00,
2013-01-05 23:42:00,33.5,31.7,29.80,West,274,10.0,12.0,93,0.00,,,0.00,Wunderground v.1.15,2013-01-06 05:42:00,
2013-01-05 23:46:00,33.7,31.9,29.80,West,268,11.0,15.0,93,0.00,,,0.01,Wunderground v.1.15,2013-01-06 05:46:00,
2013-01-05 23:47:00,33.7,31.9,29.80,WSW,257,13.0,15.0,93,0.00,,,0.01,Wunderground v.1.15,2013-01-06 05:47:00,
2013-01-05 23:51:00,33.7,31.9,29.80,West,270,7.0,13.0,93,0.00,,,0.01,Wunderground v.1.15,2013-01-06 05:51:00,
2013-01-05 23:52:00,33.7,31.9,29.80,WSW,251,10.0,13.0,93,0.00,,,0.01,Wunderground v.1.15,2013-01-06 05:52:00,
2013-01-05 23:56:00,33.5,31.7,29.79,WNW,282,10.0,13.0,93,0.00,,,0.01,Wunderground v.1.15,2013-01-06 05:56:00,
2013-01-05 23:57:00,33.5,31.7,29.79,West,276,7.0,13.0,93,0.00,,,0.01,Wunderground v.1.15,2013-01-06 05:57:00,